Observation data for Hobbs on 05/24/2019      Previous  Date  Next       Current Mesonet Observations  Soil Data  Daily Summary Page  Observations in Plain Language
KHO1 240500Z 19014G20KT 24/17 A2998 RMK A01 T02430170  RH  064%=      5-min Rain = 0
KHO1 240501Z 19014KT 24/17 A2998 RMK A01 T02430170  RH  064%=      5-min Rain = 0
KHO1 240502Z 20013KT 24/17 A2998 RMK A01 T02430170  RH  064%=      5-min Rain = 0
KHO1 240503Z 20013KT 24/17 A2998 RMK A01 T02430170  RH  064%=      5-min Rain = 0
KHO1 240504Z 20017KT 24/17 A2998 RMK A01 T02430170  RH  064%=      5-min Rain = 0
KHO1 240505Z 20018KT 24/17 A2998 RMK A01 T02430170  RH  064%=      5-min Rain = 0
KHO1 240506Z 20016KT 24/17 A2998 RMK A01 T02430170  RH  064%=      5-min Rain = 0
KHO1 240507Z 19014KT 24/17 A2998 RMK A01 T02430170  RH  064%=      5-min Rain = 0
KHO1 240508Z 20016KT 24/17 A2998 RMK A01 T02430170  RH  064%=      5-min Rain = 0
KHO1 240509Z 19013KT 24/17 A2998 RMK A01 T02430170  RH  064%=      5-min Rain = 0
KHO1 240510Z 19013KT 24/17 A2998 RMK A01 T02420170  RH  064%=      5-min Rain = 0
KHO1 240511Z 19015G21KT 24/17 A2998 RMK A01 T02420170  RH  064%=      5-min Rain = 0
KHO1 240512Z 19016KT 24/17 A2998 RMK A01 T02420170  RH  064%=      5-min Rain = 0
KHO1 240513Z 19013G19KT 24/17 A2998 RMK A01 T02420170  RH  064%=      5-min Rain = 0
KHO1 240514Z 19013KT 24/17 A2998 RMK A01 T02430170  RH  064%=      5-min Rain = 0
KHO1 240515Z 19011KT 24/17 A2998 RMK A01 T02430170  RH  064%=      5-min Rain = 0
KHO1 240516Z 19013KT 24/17 A2998 RMK A01 T02430170  RH  064%=      5-min Rain = 0
KHO1 240517Z 19013KT 24/17 A2998 RMK A01 T02430170  RH  064%=      5-min Rain = 0
KHO1 240518Z 19015KT 24/17 A2998 RMK A01 T02430170  RH  064%=      5-min Rain = 0
KHO1 240519Z 19013KT 24/17 A2998 RMK A01 T02430170  RH  064%=      5-min Rain = 0
KHO1 240520Z 19012KT 24/17 A2998 RMK A01 T02430170  RH  064%=      5-min Rain = 0
KHO1 240521Z 19012KT 24/17 A2998 RMK A01 T02430170  RH  064%=      5-min Rain = 0
KHO1 240522Z 19011KT 24/17 A2998 RMK A01 T02430170  RH  064%=      5-min Rain = 0
KHO1 240523Z 18014G19KT 24/17 A2998 RMK A01 T02430170  RH  064%=      5-min Rain = 0
KHO1 240524Z 19014KT 24/17 A2997 RMK A01 T02430170  RH  064%=      5-min Rain = 0
KHO1 240525Z 19016KT 24/17 A2997 RMK A01 T02430169  RH  064%=      5-min Rain = 0
KHO1 240526Z 19016KT 24/17 A2997 RMK A01 T02430169  RH  063%=      5-min Rain = 0
KHO1 240527Z 19014KT 24/17 A2997 RMK A01 T02430169  RH  063%=      5-min Rain = 0
KHO1 240528Z 20014KT 24/17 A2997 RMK A01 T02430169  RH  064%=      5-min Rain = 0
KHO1 240529Z 20015KT 24/17 A2997 RMK A01 T02430170  RH  064%=      5-min Rain = 0
KHO1 240530Z 19015KT 24/17 A2997 RMK A01 T02430170  RH  064%=      5-min Rain = 0
KHO1 240531Z 19017KT 24/17 A2997 RMK A01 T02430170  RH  064%=      5-min Rain = 0
KHO1 240532Z 19016KT 24/17 A2997 RMK A01 T02430170  RH  064%=      5-min Rain = 0
KHO1 240533Z 19016KT 24/17 A2997 RMK A01 T02430170  RH  064%=      5-min Rain = 0
KHO1 240534Z 19018KT 24/17 A2997 RMK A01 T02430170  RH  064%=      5-min Rain = 0
KHO1 240535Z 19018KT 24/17 A2997 RMK A01 T02430170  RH  064%=      5-min Rain = 0
KHO1 240536Z 18016KT 24/17 A2997 RMK A01 T02430170  RH  064%=      5-min Rain = 0
KHO1 240537Z 18015KT 24/17 A2997 RMK A01 T02430170  RH  064%=      5-min Rain = 0
KHO1 240538Z 18014KT 24/17 A2997 RMK A01 T02430169  RH  064%=      5-min Rain = 0
KHO1 240539Z 18017KT 24/17 A2997 RMK A01 T02430169  RH  064%=      5-min Rain = 0
KHO1 240540Z 18016KT 24/17 A2997 RMK A01 T02430169  RH  063%=      5-min Rain = 0
KHO1 240541Z 18016KT 24/17 A2997 RMK A01 T02430169  RH  063%=      5-min Rain = 0
KHO1 240542Z 18013G19KT 24/17 A2997 RMK A01 T02440169  RH  063%=      5-min Rain = 0
KHO1 240543Z 18017KT 24/17 A2997 RMK A01 T02440169  RH  063%=      5-min Rain = 0
KHO1 240544Z 19016KT 24/17 A2997 RMK A01 T02440169  RH  063%=      5-min Rain = 0
KHO1 240545Z 19018KT 24/17 A2997 RMK A01 T02440169  RH  063%=      5-min Rain = 0
KHO1 240546Z 19016KT 24/17 A2997 RMK A01 T02440169  RH  063%=      5-min Rain = 0
KHO1 240547Z 19015G22KT 24/17 A2997 RMK A01 T02430169  RH  063%=      5-min Rain = 0
KHO1 240548Z 19016KT 24/17 A2997 RMK A01 T02430169  RH  063%=      5-min Rain = 0
KHO1 240549Z 19014KT 24/17 A2997 RMK A01 T02430169  RH  063%=      5-min Rain = 0
KHO1 240550Z 19015KT 24/17 A2997 RMK A01 T02430169  RH  063%=      5-min Rain = 0
KHO1 240551Z 19013KT 24/17 A2997 RMK A01 T02430169  RH  063%=      5-min Rain = 0
KHO1 240552Z 19011KT 24/17 A2997 RMK A01 T02430169  RH  063%=      5-min Rain = 0
KHO1 240553Z 19011KT 24/17 A2997 RMK A01 T02430170  RH  064%=      5-min Rain = 0
KHO1 240554Z 20010KT 24/17 A2997 RMK A01 T02430170  RH  064%=      5-min Rain = 0
KHO1 240555Z 20012KT 24/17 A2997 RMK A01 T02420170  RH  064%=      5-min Rain = 0
KHO1 240556Z 20013KT 24/17 A2997 RMK A01 T02420170  RH  064%=      5-min Rain = 0
KHO1 240557Z 20015KT 24/17 A2997 RMK A01 T02420170  RH  064%=      5-min Rain = 0
KHO1 240558Z 20013KT 24/17 A2997 RMK A01 T02430170  RH  064%=      5-min Rain = 0
KHO1 240559Z 20012KT 24/17 A2997 RMK A01 T02420170  RH  064%=      5-min Rain = 0
KHO1 240600Z 20011KT 24/17 A2997 RMK A01 T02420170  RH  064%=      5-min Rain = 0
KHO1 240601Z 21009KT 24/17 A2997 RMK A01 T02420170  RH  064%=      5-min Rain = 0
KHO1 240602Z 21010KT 24/17 A2997 RMK A01 T02420170  RH  064%=      5-min Rain = 0
KHO1 240603Z 20010KT 24/17 A2997 RMK A01 T02420170  RH  064%=      5-min Rain = 0
KHO1 240604Z 20011KT 24/17 A2997 RMK A01 T02420170  RH  064%=      5-min Rain = 0
KHO1 240605Z 20010KT 24/17 A2997 RMK A01 T02420170  RH  064%=      5-min Rain = 0
KHO1 240606Z 19009KT 24/17 A2997 RMK A01 T02420170  RH  064%=      5-min Rain = 0
KHO1 240607Z 20010KT 24/17 A2997 RMK A01 T02420170  RH  064%=      5-min Rain = 0
KHO1 240608Z 20011KT 24/17 A2997 RMK A01 T02420171  RH  064%=      5-min Rain = 0
KHO1 240609Z 20011KT 24/17 A2997 RMK A01 T02420171  RH  064%=      5-min Rain = 0
KHO1 240610Z 20009KT 24/17 A2997 RMK A01 T02420171  RH  064%=      5-min Rain = 0
KHO1 240611Z 20010KT 24/17 A2997 RMK A01 T02420171  RH  064%=      5-min Rain = 0
KHO1 240612Z 20008KT 24/17 A2997 RMK A01 T02420171  RH  064%=      5-min Rain = 0
KHO1 240613Z 20010KT 24/17 A2997 RMK A01 T02420171  RH  064%=      5-min Rain = 0
KHO1 240614Z 20009KT 24/17 A2997 RMK A01 T02420171  RH  065%=      5-min Rain = 0
KHO1 240615Z 20011KT 24/17 A2997 RMK A01 T02420171  RH  065%=      5-min Rain = 0
KHO1 240616Z 20011KT 24/17 A2997 RMK A01 T02420171  RH  065%=      5-min Rain = 0
KHO1 240617Z 20010KT 24/17 A2997 RMK A01 T02420171  RH  064%=      5-min Rain = 0
KHO1 240618Z 20009KT 24/17 A2997 RMK A01 T02420171  RH  065%=      5-min Rain = 0
KHO1 240619Z 20009KT 24/17 A2997 RMK A01 T02420171  RH  065%=      5-min Rain = 0
KHO1 240620Z 21010KT 24/17 A2997 RMK A01 T02420171  RH  065%=      5-min Rain = 0
KHO1 240621Z 20012KT 24/17 A2997 RMK A01 T02420171  RH  064%=      5-min Rain = 0
KHO1 240622Z 20013KT 24/17 A2997 RMK A01 T02420171  RH  064%=      5-min Rain = 0
KHO1 240623Z 20013KT 24/17 A2997 RMK A01 T02430171  RH  064%=      5-min Rain = 0
KHO1 240624Z 20012KT 24/17 A2997 RMK A01 T02430171  RH  064%=      5-min Rain = 0
KHO1 240625Z 20011KT 24/17 A2997 RMK A01 T02430171  RH  064%=      5-min Rain = 0
KHO1 240626Z 21009KT 24/17 A2997 RMK A01 T02430171  RH  064%=      5-min Rain = 0
KHO1 240627Z 21008KT 24/17 A2997 RMK A01 T02430171  RH  064%=      5-min Rain = 0
KHO1 240628Z 21008KT 24/17 A2997 RMK A01 T02420171  RH  064%=      5-min Rain = 0
KHO1 240629Z 22012KT 24/17 A2997 RMK A01 T02420171  RH  064%=      5-min Rain = 0
KHO1 240630Z 21010KT 24/17 A2997 RMK A01 T02420171  RH  064%=      5-min Rain = 0
KHO1 240631Z 21009KT 24/17 A2997 RMK A01 T02420171  RH  064%=      5-min Rain = 0
KHO1 240632Z 21007KT 24/17 A2997 RMK A01 T02420171  RH  065%=      5-min Rain = 0
KHO1 240633Z 21009KT 24/17 A2997 RMK A01 T02420171  RH  065%=      5-min Rain = 0
KHO1 240634Z 20008KT 24/17 A2997 RMK A01 T02420171  RH  065%=      5-min Rain = 0
KHO1 240635Z 21010KT 24/17 A2997 RMK A01 T02420171  RH  065%=      5-min Rain = 0
KHO1 240636Z 20008KT 24/17 A2997 RMK A01 T02420171  RH  065%=      5-min Rain = 0
KHO1 240637Z 20006KT 24/17 A2997 RMK A01 T02420171  RH  065%=      5-min Rain = 0
KHO1 240638Z 21007KT 24/17 A2997 RMK A01 T02420171  RH  065%=      5-min Rain = 0
KHO1 240639Z 20009KT 24/17 A2997 RMK A01 T02420171  RH  065%=      5-min Rain = 0
KHO1 240640Z 20009KT 24/17 A2997 RMK A01 T02420171  RH  065%=      5-min Rain = 0
KHO1 240641Z 20008KT 24/17 A2997 RMK A01 T02420171  RH  065%=      5-min Rain = 0
KHO1 240642Z 20010KT 24/17 A2996 RMK A01 T02420171  RH  065%=      5-min Rain = 0
KHO1 240643Z 21010KT 24/17 A2996 RMK A01 T02420171  RH  065%=      5-min Rain = 0
KHO1 240644Z 20008KT 24/17 A2996 RMK A01 T02410171  RH  065%=      5-min Rain = 0
KHO1 240645Z 19007KT 24/17 A2996 RMK A01 T02410171  RH  065%=      5-min Rain = 0
KHO1 240646Z 19008KT 24/17 A2996 RMK A01 T02410171  RH  065%=      5-min Rain = 0
KHO1 240647Z 19008KT 24/17 A2997 RMK A01 T02410171  RH  065%=      5-min Rain = 0
KHO1 240648Z 19007KT 24/17 A2997 RMK A01 T02410171  RH  065%=      5-min Rain = 0
KHO1 240649Z 19007KT 24/17 A2997 RMK A01 T02410171  RH  065%=      5-min Rain = 0
KHO1 240650Z 19007KT 24/17 A2996 RMK A01 T02410171  RH  065%=      5-min Rain = 0
KHO1 240651Z 20007KT 24/17 A2996 RMK A01 T02410171  RH  065%=      5-min Rain = 0
KHO1 240652Z 19007KT 24/17 A2996 RMK A01 T02410171  RH  065%=      5-min Rain = 0
KHO1 240653Z 19008KT 24/17 A2996 RMK A01 T02410171  RH  065%=      5-min Rain = 0
KHO1 240654Z 19008KT 24/17 A2996 RMK A01 T02410171  RH  065%=      5-min Rain = 0
KHO1 240655Z 19009KT 24/17 A2996 RMK A01 T02400171  RH  065%=      5-min Rain = 0
KHO1 240656Z 19009KT 24/17 A2996 RMK A01 T02400172  RH  065%=      5-min Rain = 0
KHO1 240657Z 19008KT 24/17 A2996 RMK A01 T02400173  RH  066%=      5-min Rain = 0
KHO1 240658Z 19007KT 24/17 A2996 RMK A01 T02400173  RH  066%=      5-min Rain = 0
KHO1 240659Z 19008KT 24/17 A2996 RMK A01 T02400173  RH  066%=      5-min Rain = 0
KHO1 240700Z 19006KT 24/17 A2996 RMK A01 T02400173  RH  066%=      5-min Rain = 0
KHO1 240701Z 20008KT 24/17 A2996 RMK A01 T02390172  RH  066%=      5-min Rain = 0
KHO1 240702Z 20008KT 24/17 A2996 RMK A01 T02390172  RH  066%=      5-min Rain = 0
KHO1 240703Z 20008KT 24/17 A2996 RMK A01 T02390172  RH  066%=      5-min Rain = 0
KHO1 240704Z 18009KT 24/17 A2996 RMK A01 T02390172  RH  066%=      5-min Rain = 0
KHO1 240705Z 19008KT 24/17 A2996 RMK A01 T02390173  RH  066%=      5-min Rain = 0
KHO1 240706Z 18007KT 24/17 A2996 RMK A01 T02390173  RH  066%=      5-min Rain = 0
KHO1 240707Z 19005KT 24/17 A2996 RMK A01 T02390173  RH  066%=      5-min Rain = 0
KHO1 240708Z 19006KT 24/17 A2996 RMK A01 T02390173  RH  066%=      5-min Rain = 0
KHO1 240709Z 19005KT 24/17 A2996 RMK A01 T02390172  RH  066%=      5-min Rain = 0
KHO1 240710Z 19007KT 24/17 A2996 RMK A01 T02390172  RH  066%=      5-min Rain = 0
KHO1 240711Z 19006KT 24/17 A2996 RMK A01 T02390172  RH  066%=      5-min Rain = 0
KHO1 240712Z 18006KT 24/17 A2995 RMK A01 T02390172  RH  066%=      5-min Rain = 0
KHO1 240713Z 18005KT 24/17 A2996 RMK A01 T02380172  RH  066%=      5-min Rain = 0
KHO1 240714Z 18006KT 24/17 A2996 RMK A01 T02380172  RH  066%=      5-min Rain = 0
KHO1 240715Z 19006KT 24/17 A2996 RMK A01 T02380172  RH  067%=      5-min Rain = 0
KHO1 240716Z 19007KT 24/17 A2996 RMK A01 T02380172  RH  067%=      5-min Rain = 0
KHO1 240717Z 19007KT 24/17 A2996 RMK A01 T02380172  RH  067%=      5-min Rain = 0
KHO1 240718Z 19007KT 24/17 A2996 RMK A01 T02380172  RH  067%=      5-min Rain = 0
KHO1 240719Z 19007KT 24/17 A2996 RMK A01 T02380172  RH  066%=      5-min Rain = 0
KHO1 240720Z 19007KT 24/17 A2996 RMK A01 T02380172  RH  066%=      5-min Rain = 0
KHO1 240721Z 19007KT 24/17 A2996 RMK A01 T02380172  RH  066%=      5-min Rain = 0
KHO1 240722Z 19008KT 24/17 A2996 RMK A01 T02380172  RH  066%=      5-min Rain = 0
KHO1 240723Z 19008KT 24/17 A2995 RMK A01 T02390172  RH  066%=      5-min Rain = 0
KHO1 240724Z 19008KT 24/17 A2995 RMK A01 T02390172  RH  066%=      5-min Rain = 0
KHO1 240725Z 19007KT 24/17 A2995 RMK A01 T02390172  RH  066%=      5-min Rain = 0
KHO1 240726Z 19007KT 24/17 A2995 RMK A01 T02390172  RH  066%=      5-min Rain = 0
KHO1 240727Z 19008KT 24/17 A2995 RMK A01 T02380172  RH  066%=      5-min Rain = 0
KHO1 240728Z 19009KT 24/17 A2995 RMK A01 T02380172  RH  066%=      5-min Rain = 0
KHO1 240729Z 19007KT 24/17 A2995 RMK A01 T02380172  RH  066%=      5-min Rain = 0
KHO1 240730Z 19009KT 24/17 A2995 RMK A01 T02380172  RH  066%=      5-min Rain = 0
KHO1 240731Z 19008KT 24/17 A2995 RMK A01 T02380172  RH  066%=      5-min Rain = 0
KHO1 240732Z 19007KT 24/17 A2995 RMK A01 T02380172  RH  067%=      5-min Rain = 0
KHO1 240733Z 19008KT 24/17 A2995 RMK A01 T02380172  RH  067%=      5-min Rain = 0
KHO1 240734Z 19009KT 24/17 A2995 RMK A01 T02380172  RH  067%=      5-min Rain = 0
KHO1 240735Z 19009KT 24/17 A2995 RMK A01 T02380172  RH  067%=      5-min Rain = 0
KHO1 240736Z 19008KT 24/17 A2995 RMK A01 T02380172  RH  067%=      5-min Rain = 0
KHO1 240737Z 20007KT 24/17 A2995 RMK A01 T02380172  RH  067%=      5-min Rain = 0
KHO1 240738Z 19007KT 24/17 A2995 RMK A01 T02380172  RH  067%=      5-min Rain = 0
KHO1 240739Z 19007KT 24/17 A2995 RMK A01 T02370172  RH  067%=      5-min Rain = 0
KHO1 240740Z 19009KT 24/17 A2995 RMK A01 T02380172  RH  067%=      5-min Rain = 0
KHO1 240741Z 19008KT 24/17 A2995 RMK A01 T02380172  RH  066%=      5-min Rain = 0
KHO1 240742Z 19007KT 24/17 A2995 RMK A01 T02380172  RH  066%=      5-min Rain = 0
KHO1 240743Z 18008KT 24/17 A2995 RMK A01 T02380172  RH  066%=      5-min Rain = 0
KHO1 240744Z 19007KT 24/17 A2995 RMK A01 T02380172  RH  066%=      5-min Rain = 0
KHO1 240745Z 19008KT 24/17 A2996 RMK A01 T02380172  RH  066%=      5-min Rain = 0
KHO1 240746Z 20008KT 24/17 A2995 RMK A01 T02380172  RH  067%=      5-min Rain = 0
KHO1 240747Z 19007KT 24/17 A2996 RMK A01 T02380172  RH  067%=      5-min Rain = 0
KHO1 240748Z 20007KT 24/17 A2995 RMK A01 T02380172  RH  067%=      5-min Rain = 0
KHO1 240749Z 20007KT 24/17 A2996 RMK A01 T02380172  RH  067%=      5-min Rain = 0
KHO1 240750Z 20007KT 24/17 A2995 RMK A01 T02380172  RH  067%=      5-min Rain = 0
KHO1 240751Z 21007KT 24/17 A2995 RMK A01 T02370172  RH  067%=      5-min Rain = 0
KHO1 240752Z 20007KT 24/17 A2996 RMK A01 T02370172  RH  067%=      5-min Rain = 0
KHO1 240753Z 20006KT 24/17 A2996 RMK A01 T02370172  RH  067%=      5-min Rain = 0
KHO1 240754Z 20006KT 24/17 A2996 RMK A01 T02370172  RH  067%=      5-min Rain = 0
KHO1 240755Z 21005KT 24/17 A2996 RMK A01 T02370172  RH  067%=      5-min Rain = 0
KHO1 240756Z 21005KT 24/17 A2996 RMK A01 T02370172  RH  067%=      5-min Rain = 0
KHO1 240757Z 21004KT 24/17 A2996 RMK A01 T02370172  RH  067%=      5-min Rain = 0
KHO1 240758Z 22005KT 24/17 A2996 RMK A01 T02360172  RH  067%=      5-min Rain = 0
KHO1 240759Z 21005KT 24/17 A2996 RMK A01 T02360172  RH  067%=      5-min Rain = 0
KHO1 240800Z 20006KT 24/17 A2996 RMK A01 T02360172  RH  067%=      5-min Rain = 0
KHO1 240801Z 20005KT 24/17 A2996 RMK A01 T02360172  RH  067%=      5-min Rain = 0
KHO1 240802Z 20005KT 24/17 A2996 RMK A01 T02360172  RH  067%=      5-min Rain = 0
KHO1 240803Z 20005KT 24/17 A2996 RMK A01 T02360172  RH  067%=      5-min Rain = 0
KHO1 240804Z 21005KT 24/17 A2996 RMK A01 T02360172  RH  067%=      5-min Rain = 0
KHO1 240805Z 21005KT 24/17 A2996 RMK A01 T02360172  RH  067%=      5-min Rain = 0
KHO1 240806Z 20005KT 24/17 A2996 RMK A01 T02360172  RH  067%=      5-min Rain = 0
KHO1 240807Z 20005KT 24/17 A2996 RMK A01 T02360172  RH  067%=      5-min Rain = 0
KHO1 240808Z 20004KT 24/17 A2996 RMK A01 T02360172  RH  067%=      5-min Rain = 0
KHO1 240809Z 20003KT 24/17 A2996 RMK A01 T02360172  RH  067%=      5-min Rain = 0
KHO1 240810Z 20003KT 24/17 A2996 RMK A01 T02360172  RH  067%=      5-min Rain = 0
KHO1 240811Z 21003KT 24/17 A2996 RMK A01 T02360172  RH  067%=      5-min Rain = 0
KHO1 240812Z 21003KT 24/17 A2996 RMK A01 T02360172  RH  067%=      5-min Rain = 0
KHO1 240813Z 20002KT 24/17 A2996 RMK A01 T02360172  RH  067%=      5-min Rain = 0
KHO1 240814Z 21002KT 24/17 A2996 RMK A01 T02350172  RH  068%=      5-min Rain = 0
KHO1 240815Z 20001KT 24/17 A2996 RMK A01 T02350172  RH  068%=      5-min Rain = 0
KHO1 240816Z 21001KT 24/17 A2996 RMK A01 T02350172  RH  068%=      5-min Rain = 0
KHO1 240817Z 20001KT 24/17 A2996 RMK A01 T02350172  RH  068%=      5-min Rain = 0
KHO1 240818Z 19001KT 24/17 A2996 RMK A01 T02350172  RH  068%=      5-min Rain = 0
KHO1 240819Z 19001KT 24/17 A2996 RMK A01 T02350172  RH  068%=      5-min Rain = 0
KHO1 240820Z 19001KT 24/17 A2996 RMK A01 T02350172  RH  068%=      5-min Rain = 0
KHO1 240821Z 19000KT 24/17 A2996 RMK A01 T02350172  RH  068%=      5-min Rain = 0
KHO1 240822Z 19000KT 24/17 A2996 RMK A01 T02350172  RH  068%=      5-min Rain = 0
KHO1 240823Z 21000KT 23/17 A2996 RMK A01 T02340166  RH  065%=      5-min Rain = 0
KHO1 240824Z 22001KT 23/16 A2996 RMK A01 T02330156  RH  062%=      5-min Rain = 0
KHO1 240825Z 34001KT 23/15 A2996 RMK A01 T02310154  RH  062%=      5-min Rain = 0
KHO1 240826Z 35002KT 23/15 A2996 RMK A01 T02310153  RH  062%=      5-min Rain = 0
KHO1 240827Z 35002KT 23/15 A2996 RMK A01 T02300151  RH  061%=      5-min Rain = 0
KHO1 240828Z 35002KT 23/15 A2996 RMK A01 T02290151  RH  061%=      5-min Rain = 0
KHO1 240829Z 02002KT 23/15 A2996 RMK A01 T02280150  RH  061%=      5-min Rain = 0
KHO1 240830Z 03002KT 23/15 A2996 RMK A01 T02280153  RH  063%=      5-min Rain = 0
KHO1 240831Z 03002KT 23/15 A2996 RMK A01 T02270154  RH  063%=      5-min Rain = 0
KHO1 240832Z 03002KT 23/15 A2996 RMK A01 T02270154  RH  063%=      5-min Rain = 0
KHO1 240833Z 03002KT 23/15 A2996 RMK A01 T02260153  RH  063%=      5-min Rain = 0
KHO1 240834Z 03002KT 23/15 A2996 RMK A01 T02260152  RH  063%=      5-min Rain = 0
KHO1 240835Z 03003KT 23/15 A2996 RMK A01 T02250150  RH  062%=      5-min Rain = 0
KHO1 240836Z 03002KT 23/15 A2996 RMK A01 T02250146  RH  061%=      5-min Rain = 0
KHO1 240837Z 03002KT 23/14 A2996 RMK A01 T02250144  RH  060%=      5-min Rain = 0
KHO1 240838Z 03003KT 22/14 A2996 RMK A01 T02240142  RH  059%=      5-min Rain = 0
KHO1 240839Z 03004KT 22/14 A2996 RMK A01 T02240140  RH  059%=      5-min Rain = 0
KHO1 240840Z 03004KT 22/14 A2996 RMK A01 T02240137  RH  058%=      5-min Rain = 0
KHO1 240841Z 03004KT 22/13 A2996 RMK A01 T02230133  RH  057%=      5-min Rain = 0
KHO1 240842Z 03003KT 22/13 A2996 RMK A01 T02230132  RH  056%=      5-min Rain = 0
KHO1 240843Z 03002KT 22/13 A2996 RMK A01 T02230131  RH  056%=      5-min Rain = 0
KHO1 240844Z 03002KT 22/13 A2996 RMK A01 T02240133  RH  056%=      5-min Rain = 0
KHO1 240845Z 04003KT 22/13 A2996 RMK A01 T02240133  RH  056%=      5-min Rain = 0
KHO1 240846Z 04003KT 22/13 A2996 RMK A01 T02240130  RH  055%=      5-min Rain = 0
KHO1 240847Z 03003KT 22/13 A2996 RMK A01 T02230127  RH  054%=      5-min Rain = 0
KHO1 240848Z 04004KT 22/13 A2996 RMK A01 T02230125  RH  054%=      5-min Rain = 0
KHO1 240849Z 03003KT 22/12 A2996 RMK A01 T02220122  RH  053%=      5-min Rain = 0
KHO1 240850Z 03003KT 22/12 A2996 RMK A01 T02220122  RH  053%=      5-min Rain = 0
KHO1 240851Z 02004KT 22/12 A2996 RMK A01 T02230122  RH  053%=      5-min Rain = 0
KHO1 240852Z 03004KT 22/12 A2996 RMK A01 T02220121  RH  053%=      5-min Rain = 0
KHO1 240853Z 03003KT 22/12 A2996 RMK A01 T02220121  RH  053%=      5-min Rain = 0
KHO1 240854Z 03003KT 22/12 A2996 RMK A01 T02210123  RH  053%=      5-min Rain = 0
KHO1 240855Z 04003KT 22/12 A2996 RMK A01 T02210123  RH  054%=      5-min Rain = 0
KHO1 240856Z 03003KT 22/12 A2996 RMK A01 T02210123  RH  054%=      5-min Rain = 0
KHO1 240857Z 03003KT 22/12 A2996 RMK A01 T02210122  RH  053%=      5-min Rain = 0
KHO1 240858Z 03003KT 22/12 A2996 RMK A01 T02210123  RH  054%=      5-min Rain = 0
KHO1 240859Z 02003KT 22/12 A2996 RMK A01 T02210124  RH  054%=      5-min Rain = 0
KHO1 240900Z 02003KT 22/12 A2996 RMK A01 T02210123  RH  054%=      5-min Rain = 0
KHO1 240901Z 01004KT 22/12 A2996 RMK A01 T02210123  RH  054%=      5-min Rain = 0
KHO1 240902Z 01003KT 22/12 A2996 RMK A01 T02200124  RH  054%=      5-min Rain = 0
KHO1 240903Z 02004KT 22/12 A2996 RMK A01 T02200124  RH  055%=      5-min Rain = 0
KHO1 240904Z 02004KT 22/13 A2996 RMK A01 T02200125  RH  055%=      5-min Rain = 0
KHO1 240905Z 03004KT 22/12 A2996 RMK A01 T02190124  RH  055%=      5-min Rain = 0
KHO1 240906Z 03005KT 22/12 A2996 RMK A01 T02180121  RH  054%=      5-min Rain = 0
KHO1 240907Z 03004KT 22/12 A2996 RMK A01 T02180119  RH  053%=      5-min Rain = 0
KHO1 240908Z 03004KT 22/12 A2996 RMK A01 T02180119  RH  053%=      5-min Rain = 0
KHO1 240909Z 03004KT 22/12 A2996 RMK A01 T02180118  RH  053%=      5-min Rain = 0
KHO1 240910Z 03004KT 22/12 A2996 RMK A01 T02180118  RH  053%=      5-min Rain = 0
KHO1 240911Z 04004KT 22/12 A2996 RMK A01 T02180118  RH  053%=      5-min Rain = 0
KHO1 240912Z 04004KT 22/12 A2996 RMK A01 T02170119  RH  053%=      5-min Rain = 0
KHO1 240913Z 04004KT 22/12 A2996 RMK A01 T02170119  RH  054%=      5-min Rain = 0
KHO1 240914Z 06003KT 22/12 A2996 RMK A01 T02170119  RH  054%=      5-min Rain = 0
KHO1 240915Z 09002KT 22/12 A2996 RMK A01 T02170124  RH  056%=      5-min Rain = 0
KHO1 240916Z 06002KT 22/13 A2996 RMK A01 T02170130  RH  058%=      5-min Rain = 0
KHO1 240917Z 06001KT 22/13 A2996 RMK A01 T02170129  RH  057%=      5-min Rain = 0
KHO1 240918Z 06000KT 22/12 A2996 RMK A01 T02170124  RH  056%=      5-min Rain = 0
KHO1 240919Z 12001KT 22/13 A2996 RMK A01 T02170130  RH  058%=      5-min Rain = 0
KHO1 240920Z 15001KT 22/13 A2996 RMK A01 T02180129  RH  057%=      5-min Rain = 0
KHO1 240921Z 16003KT 22/14 A2996 RMK A01 T02180144  RH  062%=      5-min Rain = 0
KHO1 240922Z 15004KT 22/16 A2996 RMK A01 T02200157  RH  067%=      5-min Rain = 0
KHO1 240923Z 16004KT 22/17 A2996 RMK A01 T02220170  RH  072%=      5-min Rain = 0
KHO1 240924Z 16005KT 22/17 A2996 RMK A01 T02240171  RH  072%=      5-min Rain = 0
KHO1 240925Z 16004KT 23/17 A2996 RMK A01 T02250172  RH  072%=      5-min Rain = 0
KHO1 240926Z 15004KT 23/17 A2996 RMK A01 T02260171  RH  071%=      5-min Rain = 0
KHO1 240927Z 15004KT 23/17 A2996 RMK A01 T02260172  RH  071%=      5-min Rain = 0
KHO1 240928Z 15003KT 23/17 A2996 RMK A01 T02260172  RH  071%=      5-min Rain = 0
KHO1 240929Z 15003KT 23/17 A2996 RMK A01 T02270172  RH  071%=      5-min Rain = 0
KHO1 240930Z 16003KT 23/17 A2996 RMK A01 T02270172  RH  071%=      5-min Rain = 0
KHO1 240931Z 16003KT 23/17 A2996 RMK A01 T02270172  RH  071%=      5-min Rain = 0
KHO1 240932Z 16003KT 23/17 A2996 RMK A01 T02270172  RH  071%=      5-min Rain = 0
KHO1 240933Z 17002KT 23/17 A2996 RMK A01 T02270172  RH  071%=      5-min Rain = 0
KHO1 240934Z 16003KT 23/17 A2996 RMK A01 T02270172  RH  071%=      5-min Rain = 0
KHO1 240935Z 16003KT 23/17 A2996 RMK A01 T02280172  RH  071%=      5-min Rain = 0
KHO1 240936Z 17001KT 23/17 A2996 RMK A01 T02280172  RH  071%=      5-min Rain = 0
KHO1 240937Z 16002KT 23/17 A2996 RMK A01 T02280172  RH  071%=      5-min Rain = 0
KHO1 240938Z 16002KT 23/17 A2996 RMK A01 T02280172  RH  071%=      5-min Rain = 0
KHO1 240939Z 16002KT 23/17 A2996 RMK A01 T02280172  RH  071%=      5-min Rain = 0
KHO1 240940Z 16001KT 23/17 A2996 RMK A01 T02280171  RH  070%=      5-min Rain = 0
KHO1 240941Z 02002KT 23/15 A2997 RMK A01 T02260147  RH  061%=      5-min Rain = 0
KHO1 240942Z 03005KT 22/14 A2996 RMK A01 T02240139  RH  058%=      5-min Rain = 0
KHO1 240943Z 05005KT 22/14 A2997 RMK A01 T02230136  RH  058%=      5-min Rain = 0
KHO1 240944Z 05007KT 22/14 A2997 RMK A01 T02220143  RH  061%=      5-min Rain = 0
KHO1 240945Z 05007KT 22/14 A2997 RMK A01 T02180142  RH  062%=      5-min Rain = 0
KHO1 240946Z 06006KT 22/14 A2997 RMK A01 T02150141  RH  063%=      5-min Rain = 0
KHO1 240947Z 06006KT 21/14 A2997 RMK A01 T02120141  RH  064%=      5-min Rain = 0
KHO1 240948Z 05008KT 21/14 A2997 RMK A01 T02100139  RH  064%=      5-min Rain = 0
KHO1 240949Z 06009KT 21/14 A2997 RMK A01 T02070137  RH  064%=      5-min Rain = 0
KHO1 240950Z 06007KT 21/14 A2997 RMK A01 T02050136  RH  065%=      5-min Rain = 0
KHO1 240951Z 07005KT 20/14 A2997 RMK A01 T02030137  RH  065%=      5-min Rain = 0
KHO1 240952Z 06008KT 20/14 A2997 RMK A01 T02020137  RH  066%=      5-min Rain = 0
KHO1 240953Z 06008KT 20/14 A2997 RMK A01 T02010136  RH  066%=      5-min Rain = 0
KHO1 240954Z 06006KT 20/14 A2997 RMK A01 T02000136  RH  067%=      5-min Rain = 0
KHO1 240955Z 06008KT 20/14 A2997 RMK A01 T02000136  RH  067%=      5-min Rain = 0
KHO1 240956Z 06008KT 20/14 A2997 RMK A01 T01990137  RH  067%=      5-min Rain = 0
KHO1 240957Z 06006KT 20/14 A2997 RMK A01 T01990137  RH  068%=      5-min Rain = 0
KHO1 240958Z 06007KT 20/14 A2997 RMK A01 T01980137  RH  068%=      5-min Rain = 0
KHO1 240959Z 06007KT 20/14 A2997 RMK A01 T01980137  RH  068%=      5-min Rain = 0
KHO1 241000Z 06007KT 20/14 A2997 RMK A01 T01970137  RH  068%=      5-min Rain = 0
KHO1 241001Z 05006KT 20/14 A2997 RMK A01 T01970136  RH  068%=      5-min Rain = 0
KHO1 241002Z 06005KT 20/14 A2997 RMK A01 T01970137  RH  068%=      5-min Rain = 0
KHO1 241003Z 04005KT 20/14 A2997 RMK A01 T01970137  RH  068%=      5-min Rain = 0
KHO1 241004Z 04006KT 20/14 A2997 RMK A01 T01970137  RH  068%=      5-min Rain = 0
KHO1 241005Z 04007KT 20/14 A2997 RMK A01 T01960137  RH  068%=      5-min Rain = 0
KHO1 241006Z 03009KT 20/14 A2997 RMK A01 T01960137  RH  069%=      5-min Rain = 0
KHO1 241007Z 03007KT 20/14 A2997 RMK A01 T01950137  RH  069%=      5-min Rain = 0
KHO1 241008Z 03005KT 20/14 A2997 RMK A01 T01950137  RH  069%=      5-min Rain = 0
KHO1 241009Z 02007KT 20/14 A2997 RMK A01 T01950136  RH  069%=      5-min Rain = 0
KHO1 241010Z 01007KT 20/14 A2997 RMK A01 T01950135  RH  068%=      5-min Rain = 0
KHO1 241011Z 01007KT 20/14 A2997 RMK A01 T01950135  RH  068%=      5-min Rain = 0
KHO1 241012Z 01008KT 19/13 A2997 RMK A01 T01940133  RH  068%=      5-min Rain = 0
KHO1 241013Z 02008KT 19/13 A2997 RMK A01 T01940133  RH  068%=      5-min Rain = 0
KHO1 241014Z 01007KT 19/13 A2997 RMK A01 T01940133  RH  068%=      5-min Rain = 0
KHO1 241015Z 02009KT 19/13 A2997 RMK A01 T01940132  RH  067%=      5-min Rain = 0
KHO1 241016Z 01007KT 19/13 A2997 RMK A01 T01940132  RH  067%=      5-min Rain = 0
KHO1 241017Z 00008KT 19/13 A2997 RMK A01 T01940131  RH  067%=      5-min Rain = 0
KHO1 241018Z 01008KT 19/13 A2997 RMK A01 T01940131  RH  067%=      5-min Rain = 0
KHO1 241019Z 02008KT 19/13 A2997 RMK A01 T01940131  RH  067%=      5-min Rain = 0
KHO1 241020Z 02009KT 19/13 A2997 RMK A01 T01940131  RH  067%=      5-min Rain = 0
KHO1 241021Z 03010KT 19/13 A2997 RMK A01 T01940131  RH  067%=      5-min Rain = 0
KHO1 241022Z 03010KT 19/13 A2997 RMK A01 T01940131  RH  067%=      5-min Rain = 0
KHO1 241023Z 03010KT 19/13 A2997 RMK A01 T01940131  RH  067%=      5-min Rain = 0
KHO1 241024Z 03010KT 19/13 A2997 RMK A01 T01930131  RH  067%=      5-min Rain = 0
KHO1 241025Z 04008KT 19/13 A2997 RMK A01 T01940131  RH  067%=      5-min Rain = 0
KHO1 241026Z 04010KT 19/13 A2997 RMK A01 T01940132  RH  067%=      5-min Rain = 0
KHO1 241027Z 04007KT 19/13 A2997 RMK A01 T01940132  RH  067%=      5-min Rain = 0
KHO1 241028Z 04008KT 19/13 A2997 RMK A01 T01940132  RH  067%=      5-min Rain = 0
KHO1 241029Z 04009KT 20/13 A2997 RMK A01 T01950133  RH  067%=      5-min Rain = 0
KHO1 241030Z 05010KT 20/13 A2997 RMK A01 T01950133  RH  067%=      5-min Rain = 0
KHO1 241031Z 05007KT 20/13 A2997 RMK A01 T01950133  RH  067%=      5-min Rain = 0
KHO1 241032Z 05009KT 20/13 A2997 RMK A01 T01950133  RH  067%=      5-min Rain = 0
KHO1 241033Z 06005KT 20/13 A2997 RMK A01 T01950133  RH  068%=      5-min Rain = 0
KHO1 241034Z 05005G11KT 19/13 A2997 RMK A01 T01940133  RH  068%=      5-min Rain = 0
KHO1 241035Z 06008KT 20/13 A2997 RMK A01 T01950134  RH  068%=      5-min Rain = 0
KHO1 241036Z 05008KT 20/13 A2997 RMK A01 T01950133  RH  068%=      5-min Rain = 0
KHO1 241037Z 06006KT 20/13 A2997 RMK A01 T01950133  RH  068%=      5-min Rain = 0
KHO1 241038Z 05006KT 20/13 A2997 RMK A01 T01950134  RH  068%=      5-min Rain = 0
KHO1 241039Z 05005KT 20/13 A2997 RMK A01 T01950134  RH  068%=      5-min Rain = 0
KHO1 241040Z 06004KT 20/14 A2997 RMK A01 T01950135  RH  068%=      5-min Rain = 0
KHO1 241041Z 06006KT 20/14 A2997 RMK A01 T01950135  RH  068%=      5-min Rain = 0
KHO1 241042Z 06006KT 20/14 A2997 RMK A01 T01950136  RH  069%=      5-min Rain = 0
KHO1 241043Z 06005KT 20/14 A2998 RMK A01 T01950136  RH  069%=      5-min Rain = 0
KHO1 241044Z 06006KT 19/14 A2998 RMK A01 T01940136  RH  069%=      5-min Rain = 0
KHO1 241045Z 07005KT 19/14 A2998 RMK A01 T01940136  RH  069%=      5-min Rain = 0
KHO1 241046Z 06005KT 19/14 A2998 RMK A01 T01940136  RH  069%=      5-min Rain = 0
KHO1 241047Z 06005KT 19/14 A2998 RMK A01 T01940136  RH  069%=      5-min Rain = 0
KHO1 241048Z 06005KT 19/14 A2998 RMK A01 T01940136  RH  069%=      5-min Rain = 0
KHO1 241049Z 05006KT 19/14 A2998 RMK A01 T01940137  RH  069%=      5-min Rain = 0
KHO1 241050Z 06007KT 19/14 A2998 RMK A01 T01940137  RH  070%=      5-min Rain = 0
KHO1 241051Z 05007KT 19/14 A2998 RMK A01 T01940137  RH  070%=      5-min Rain = 0
KHO1 241052Z 06007KT 19/14 A2998 RMK A01 T01930137  RH  070%=      5-min Rain = 0
KHO1 241053Z 06005KT 19/14 A2998 RMK A01 T01930137  RH  070%=      5-min Rain = 0
KHO1 241054Z 06005KT 19/14 A2998 RMK A01 T01930137  RH  070%=      5-min Rain = 0
KHO1 241055Z 06005KT 19/14 A2998 RMK A01 T01930137  RH  070%=      5-min Rain = 0
KHO1 241056Z 05006KT 19/14 A2998 RMK A01 T01930137  RH  070%=      5-min Rain = 0
KHO1 241057Z 07004KT 19/14 A2998 RMK A01 T01920137  RH  070%=      5-min Rain = 0
KHO1 241058Z 07005KT 19/14 A2998 RMK A01 T01920137  RH  070%=      5-min Rain = 0
KHO1 241059Z 06005KT 19/14 A2998 RMK A01 T01920137  RH  070%=      5-min Rain = 0
KHO1 241100Z 06005KT 19/14 A2998 RMK A01 T01920138  RH  071%=      5-min Rain = 0
KHO1 241101Z 07004KT 19/14 A2998 RMK A01 T01920138  RH  071%=      5-min Rain = 0
KHO1 241102Z 07003KT 19/14 A2998 RMK A01 T01920138  RH  071%=      5-min Rain = 0
KHO1 241103Z 07004KT 19/14 A2998 RMK A01 T01920138  RH  071%=      5-min Rain = 0
KHO1 241104Z 06005KT 19/14 A2998 RMK A01 T01920139  RH  071%=      5-min Rain = 0
KHO1 241105Z 04005KT 19/14 A2998 RMK A01 T01910139  RH  071%=      5-min Rain = 0
KHO1 241106Z 05006KT 19/14 A2998 RMK A01 T01910139  RH  072%=      5-min Rain = 0
KHO1 241107Z 05006KT 19/14 A2998 RMK A01 T01910139  RH  072%=      5-min Rain = 0
KHO1 241108Z 07005KT 19/14 A2998 RMK A01 T01910139  RH  072%=      5-min Rain = 0
KHO1 241109Z 06005KT 19/14 A2998 RMK A01 T01910139  RH  072%=      5-min Rain = 0
KHO1 241110Z 06005KT 19/14 A2998 RMK A01 T01900139  RH  072%=      5-min Rain = 0
KHO1 241111Z 06005KT 19/14 A2999 RMK A01 T01900139  RH  072%=      5-min Rain = 0
KHO1 241112Z 06006KT 19/14 A2999 RMK A01 T01900139  RH  072%=      5-min Rain = 0
KHO1 241113Z 07005KT 19/14 A2999 RMK A01 T01890139  RH  072%=      5-min Rain = 0
KHO1 241114Z 06004KT 19/14 A2999 RMK A01 T01890139  RH  072%=      5-min Rain = 0
KHO1 241115Z 07005KT 19/14 A2999 RMK A01 T01890139  RH  073%=      5-min Rain = 0
KHO1 241116Z 06005KT 19/14 A2999 RMK A01 T01890139  RH  073%=      5-min Rain = 0
KHO1 241117Z 04006KT 19/14 A2999 RMK A01 T01890139  RH  073%=      5-min Rain = 0
KHO1 241118Z 05007KT 19/14 A2999 RMK A01 T01890139  RH  073%=      5-min Rain = 0
KHO1 241119Z 05007KT 19/14 A2999 RMK A01 T01880138  RH  073%=      5-min Rain = 0
KHO1 241120Z 05007KT 19/14 A2999 RMK A01 T01880138  RH  073%=      5-min Rain = 0
KHO1 241121Z 05008KT 19/14 A2999 RMK A01 T01880138  RH  073%=      5-min Rain = 0
KHO1 241122Z 05006KT 19/14 A2999 RMK A01 T01870138  RH  073%=      5-min Rain = 0
KHO1 241123Z 05007KT 19/14 A2999 RMK A01 T01870138  RH  073%=      5-min Rain = 0
KHO1 241124Z 05008KT 19/14 A2999 RMK A01 T01870139  RH  074%=      5-min Rain = 0
KHO1 241125Z 05009KT 19/14 A2999 RMK A01 T01870140  RH  074%=      5-min Rain = 0
KHO1 241126Z 05007KT 19/14 A2999 RMK A01 T01870140  RH  074%=      5-min Rain = 0
KHO1 241127Z 05007KT 19/14 A2999 RMK A01 T01860140  RH  074%=      5-min Rain = 0
KHO1 241128Z 05007KT 19/14 A2999 RMK A01 T01860140  RH  075%=      5-min Rain = 0
KHO1 241129Z 05006KT 19/14 A2999 RMK A01 T01860140  RH  075%=      5-min Rain = 0
KHO1 241130Z 06006KT 19/14 A2999 RMK A01 T01860141  RH  075%=      5-min Rain = 0
KHO1 241131Z 05005KT 19/14 A2999 RMK A01 T01860141  RH  075%=      5-min Rain = 0
KHO1 241132Z 05007KT 19/14 A2999 RMK A01 T01860141  RH  075%=      5-min Rain = 0
KHO1 241133Z 04006KT 19/14 A2999 RMK A01 T01850141  RH  075%=      5-min Rain = 0
KHO1 241134Z 04004KT 19/14 A2999 RMK A01 T01850141  RH  075%=      5-min Rain = 0
KHO1 241135Z 04005KT 19/14 A2999 RMK A01 T01860141  RH  075%=      5-min Rain = 0
KHO1 241136Z 05006KT 19/14 A2999 RMK A01 T01860141  RH  075%=      5-min Rain = 0
KHO1 241137Z 04007KT 19/14 A2999 RMK A01 T01860141  RH  075%=      5-min Rain = 0
KHO1 241138Z 04008KT 19/14 A2999 RMK A01 T01860142  RH  076%=      5-min Rain = 0
KHO1 241139Z 06006KT 19/14 A2999 RMK A01 T01850142  RH  076%=      5-min Rain = 0
KHO1 241140Z 05007KT 19/14 A2999 RMK A01 T01850142  RH  076%=      5-min Rain = 0
KHO1 241141Z 05007KT 19/14 A2998 RMK A01 T01850142  RH  076%=      5-min Rain = 0
KHO1 241142Z 05008KT 19/14 A2998 RMK A01 T01850143  RH  076%=      5-min Rain = 0
KHO1 241143Z 06007KT 19/14 A2999 RMK A01 T01850143  RH  077%=      5-min Rain = 0
KHO1 241144Z 05007KT 19/14 A2998 RMK A01 T01850143  RH  077%=      5-min Rain = 0
KHO1 241145Z 06006KT 18/14 A2999 RMK A01 T01840143  RH  077%=      5-min Rain = 0
KHO1 241146Z 06006KT 18/14 A2998 RMK A01 T01840143  RH  077%=      5-min Rain = 0
KHO1 241147Z 05006KT 18/14 A2999 RMK A01 T01840143  RH  077%=      5-min Rain = 0
KHO1 241148Z 05007KT 18/14 A2998 RMK A01 T01840143  RH  077%=      5-min Rain = 0
KHO1 241149Z 06006KT 18/14 A2998 RMK A01 T01840143  RH  077%=      5-min Rain = 0
KHO1 241150Z 06005KT 18/14 A2998 RMK A01 T01840143  RH  077%=      5-min Rain = 0
KHO1 241151Z 06006KT 18/14 A2998 RMK A01 T01840144  RH  077%=      5-min Rain = 0
KHO1 241152Z 06005KT 18/14 A2998 RMK A01 T01840144  RH  077%=      5-min Rain = 0
KHO1 241153Z 06005KT 18/14 A2999 RMK A01 T01840144  RH  078%=      5-min Rain = 0
KHO1 241154Z 05005KT 18/14 A2999 RMK A01 T01840144  RH  078%=      5-min Rain = 0
KHO1 241155Z 05006KT 18/14 A2999 RMK A01 T01840144  RH  078%=      5-min Rain = 0
KHO1 241156Z 06005KT 18/14 A2999 RMK A01 T01840144  RH  078%=      5-min Rain = 0
KHO1 241157Z 05005KT 18/14 A2999 RMK A01 T01840144  RH  078%=      5-min Rain = 0
KHO1 241158Z 05006KT 18/14 A2999 RMK A01 T01840144  RH  078%=      5-min Rain = 0
KHO1 241159Z 06006KT 18/14 A2999 RMK A01 T01830144  RH  078%=      5-min Rain = 0
KHO1 241200Z 06006KT 18/14 A2999 RMK A01 T01830144  RH  078%=      5-min Rain = 0
KHO1 241201Z 05007KT 18/15 A2999 RMK A01 T01830145  RH  078%=      5-min Rain = 0
KHO1 241202Z 06006KT 18/15 A2999 RMK A01 T01830145  RH  078%=      5-min Rain = 0
KHO1 241203Z 05005KT 18/15 A30 RMK A01 T01830145  RH  079%=      5-min Rain = 0
KHO1 241204Z 06006KT 18/15 A30 RMK A01 T01830145  RH  079%=      5-min Rain = 0
KHO1 241205Z 06004KT 18/15 A30 RMK A01 T01830145  RH  079%=      5-min Rain = 0
KHO1 241206Z 06005KT 18/15 A2999 RMK A01 T01820145  RH  079%=      5-min Rain = 0
KHO1 241207Z 07004KT 18/15 A2999 RMK A01 T01820146  RH  079%=      5-min Rain = 0
KHO1 241208Z 06005KT 18/15 A2999 RMK A01 T01820146  RH  079%=      5-min Rain = 0
KHO1 241209Z 06007KT 18/15 A2999 RMK A01 T01820146  RH  079%=      5-min Rain = 0
KHO1 241210Z 05006KT 18/15 A30 RMK A01 T01820146  RH  080%=      5-min Rain = 0
KHO1 241211Z 05005KT 18/15 A30 RMK A01 T01820146  RH  080%=      5-min Rain = 0
KHO1 241212Z 05004KT 18/15 A30 RMK A01 T01820146  RH  080%=      5-min Rain = 0
KHO1 241213Z 05004KT 18/15 A30 RMK A01 T01820146  RH  080%=      5-min Rain = 0
KHO1 241214Z 05006KT 18/15 A30 RMK A01 T01820146  RH  080%=      5-min Rain = 0
KHO1 241215Z 05006KT 18/15 A30 RMK A01 T01820146  RH  080%=      5-min Rain = 0
KHO1 241216Z 05005KT 18/15 A30 RMK A01 T01810146  RH  080%=      5-min Rain = 0
KHO1 241217Z 04004KT 18/15 A30 RMK A01 T01810146  RH  080%=      5-min Rain = 0
KHO1 241218Z 04004KT 18/15 A30 RMK A01 T01820147  RH  080%=      5-min Rain = 0
KHO1 241219Z 04004KT 18/15 A30 RMK A01 T01820147  RH  080%=      5-min Rain = 0
KHO1 241220Z 04005KT 18/15 A30 RMK A01 T01820147  RH  080%=      5-min Rain = 0
KHO1 241221Z 05005KT 18/15 A30 RMK A01 T01820147  RH  080%=      5-min Rain = 0
KHO1 241222Z 05004KT 18/15 A30 RMK A01 T01820147  RH  080%=      5-min Rain = 0
KHO1 241223Z 05004KT 18/15 A30 RMK A01 T01820148  RH  080%=      5-min Rain = 0
KHO1 241224Z 04005KT 18/15 A30 RMK A01 T01830148  RH  080%=      5-min Rain = 0
KHO1 241225Z 05005KT 18/15 A30 RMK A01 T01830148  RH  080%=      5-min Rain = 0
KHO1 241226Z 04004KT 18/15 A30 RMK A01 T01830148  RH  080%=      5-min Rain = 0
KHO1 241227Z 04004KT 18/15 A30 RMK A01 T01830149  RH  080%=      5-min Rain = 0
KHO1 241228Z 04006KT 18/15 A30 RMK A01 T01840149  RH  080%=      5-min Rain = 0
KHO1 241229Z 05004KT 18/15 A30 RMK A01 T01840150  RH  080%=      5-min Rain = 0
KHO1 241230Z 04006KT 18/15 A30 RMK A01 T01840150  RH  080%=      5-min Rain = 0
KHO1 241231Z 04006KT 18/15 A30 RMK A01 T01840150  RH  080%=      5-min Rain = 0
KHO1 241232Z 04005KT 18/15 A30 RMK A01 T01840150  RH  080%=      5-min Rain = 0
KHO1 241233Z 04005KT 18/15 A30 RMK A01 T01840150  RH  080%=      5-min Rain = 0
KHO1 241234Z 05004KT 18/15 A3001 RMK A01 T01840150  RH  080%=      5-min Rain = 0
KHO1 241235Z 05003KT 18/15 A3001 RMK A01 T01840150  RH  080%=      5-min Rain = 0
KHO1 241236Z 05006KT 19/15 A3001 RMK A01 T01850150  RH  080%=      5-min Rain = 0
KHO1 241237Z 05006KT 18/15 A3001 RMK A01 T01840150  RH  081%=      5-min Rain = 0
KHO1 241238Z 04006KT 18/15 A3001 RMK A01 T01840151  RH  081%=      5-min Rain = 0
KHO1 241239Z 04007KT 18/15 A3001 RMK A01 T01840151  RH  081%=      5-min Rain = 0
KHO1 241240Z 04007KT 18/15 A3001 RMK A01 T01840151  RH  081%=      5-min Rain = 0
KHO1 241241Z 05004KT 18/15 A3001 RMK A01 T01840151  RH  081%=      5-min Rain = 0
KHO1 241242Z 06005KT 18/15 A30 RMK A01 T01840151  RH  081%=      5-min Rain = 0
KHO1 241243Z 05005KT 18/15 A30 RMK A01 T01840151  RH  081%=      5-min Rain = 0
KHO1 241244Z 05006KT 19/15 A30 RMK A01 T01850151  RH  081%=      5-min Rain = 0
KHO1 241245Z 06005KT 18/15 A30 RMK A01 T01840151  RH  081%=      5-min Rain = 0
KHO1 241246Z 06005KT 18/15 A30 RMK A01 T01840151  RH  081%=      5-min Rain = 0
KHO1 241247Z 06004KT 18/15 A30 RMK A01 T01840151  RH  081%=      5-min Rain = 0
KHO1 241248Z 04005KT 18/15 A30 RMK A01 T01840152  RH  081%=      5-min Rain = 0
KHO1 241249Z 05004KT 18/15 A30 RMK A01 T01840152  RH  081%=      5-min Rain = 0
KHO1 241250Z 04007KT 19/15 A30 RMK A01 T01850153  RH  081%=      5-min Rain = 0
KHO1 241251Z 04006KT 19/15 A30 RMK A01 T01850153  RH  082%=      5-min Rain = 0
KHO1 241252Z 04007KT 19/15 A30 RMK A01 T01850153  RH  081%=      5-min Rain = 0
KHO1 241253Z 04007KT 19/15 A30 RMK A01 T01850153  RH  081%=      5-min Rain = 0
KHO1 241254Z 04004KT 19/15 A30 RMK A01 T01850153  RH  082%=      5-min Rain = 0
KHO1 241255Z 04005KT 19/15 A3001 RMK A01 T01860154  RH  082%=      5-min Rain = 0
KHO1 241256Z 06004KT 19/15 A3001 RMK A01 T01860154  RH  081%=      5-min Rain = 0
KHO1 241257Z 05004KT 19/15 A3001 RMK A01 T01870154  RH  081%=      5-min Rain = 0
KHO1 241258Z 05004KT 19/15 A3001 RMK A01 T01870154  RH  081%=      5-min Rain = 0
KHO1 241259Z 05005KT 19/15 A3001 RMK A01 T01880154  RH  081%=      5-min Rain = 0
KHO1 241300Z 05004KT 19/15 A3001 RMK A01 T01880154  RH  080%=      5-min Rain = 0
KHO1 241301Z 06007KT 19/15 A3001 RMK A01 T01880154  RH  080%=      5-min Rain = 0
KHO1 241302Z 05006KT 19/15 A3001 RMK A01 T01880153  RH  080%=      5-min Rain = 0
KHO1 241303Z 06004KT 19/15 A3001 RMK A01 T01880154  RH  081%=      5-min Rain = 0
KHO1 241304Z 06004KT 19/15 A3001 RMK A01 T01880154  RH  081%=      5-min Rain = 0
KHO1 241305Z 05004KT 19/15 A3001 RMK A01 T01880154  RH  081%=      5-min Rain = 0
KHO1 241306Z 05005KT 19/16 A3001 RMK A01 T01890155  RH  081%=      5-min Rain = 0
KHO1 241307Z 05008KT 19/15 A3001 RMK A01 T01890154  RH  080%=      5-min Rain = 0
KHO1 241308Z 05007KT 19/15 A3001 RMK A01 T01890154  RH  080%=      5-min Rain = 0
KHO1 241309Z 05005KT 19/15 A3001 RMK A01 T01890154  RH  080%=      5-min Rain = 0
KHO1 241310Z 05007KT 19/15 A3001 RMK A01 T01890154  RH  080%=      5-min Rain = 0
KHO1 241311Z 05006KT 19/15 A3001 RMK A01 T01890154  RH  080%=      5-min Rain = 0
KHO1 241312Z 05007KT 19/16 A30 RMK A01 T01890155  RH  081%=      5-min Rain = 0
KHO1 241313Z 06005KT 19/16 A30 RMK A01 T01890155  RH  080%=      5-min Rain = 0
KHO1 241314Z 06006KT 19/16 A30 RMK A01 T01890155  RH  080%=      5-min Rain = 0
KHO1 241315Z 06007KT 19/15 A30 RMK A01 T01900154  RH  080%=      5-min Rain = 0
KHO1 241316Z 06005KT 19/15 A30 RMK A01 T01890154  RH  080%=      5-min Rain = 0
KHO1 241317Z 06005KT 19/16 A30 RMK A01 T01900155  RH  080%=      5-min Rain = 0
KHO1 241318Z 05006KT 19/16 A30 RMK A01 T01900155  RH  080%=      5-min Rain = 0
KHO1 241319Z 05006KT 19/16 A30 RMK A01 T01910156  RH  080%=      5-min Rain = 0
KHO1 241320Z 05007KT 19/16 A3001 RMK A01 T01910156  RH  080%=      5-min Rain = 0
KHO1 241321Z 06005KT 19/16 A3001 RMK A01 T01920156  RH  080%=      5-min Rain = 0
KHO1 241322Z 05006KT 19/16 A3001 RMK A01 T01920156  RH  080%=      5-min Rain = 0
KHO1 241323Z 06006KT 19/16 A3001 RMK A01 T01920156  RH  079%=      5-min Rain = 0
KHO1 241324Z 04007KT 19/16 A3001 RMK A01 T01920156  RH  079%=      5-min Rain = 0
KHO1 241325Z 04009KT 19/16 A3001 RMK A01 T01930157  RH  079%=      5-min Rain = 0
KHO1 241326Z 05007KT 19/16 A3001 RMK A01 T01930157  RH  079%=      5-min Rain = 0
KHO1 241327Z 05007KT 19/16 A3001 RMK A01 T01930156  RH  079%=      5-min Rain = 0
KHO1 241328Z 05006KT 19/16 A3001 RMK A01 T01930156  RH  079%=      5-min Rain = 0
KHO1 241329Z 06007KT 19/16 A3001 RMK A01 T01930157  RH  079%=      5-min Rain = 0
KHO1 241330Z 05007KT 19/16 A3001 RMK A01 T01930157  RH  079%=      5-min Rain = 0
KHO1 241331Z 05006KT 19/16 A3001 RMK A01 T01930157  RH  080%=      5-min Rain = 0
KHO1 241332Z 05006KT 19/16 A3001 RMK A01 T01940158  RH  080%=      5-min Rain = 0
KHO1 241333Z 05004KT 19/16 A3001 RMK A01 T01940158  RH  080%=      5-min Rain = 0
KHO1 241334Z 05006KT 20/16 A3001 RMK A01 T01950159  RH  080%=      5-min Rain = 0
KHO1 241335Z 05005KT 20/16 A3001 RMK A01 T01960158  RH  079%=      5-min Rain = 0
KHO1 241336Z 05004KT 20/16 A3001 RMK A01 T01960159  RH  079%=      5-min Rain = 0
KHO1 241337Z 04006KT 20/16 A3001 RMK A01 T01970158  RH  078%=      5-min Rain = 0
KHO1 241338Z 03006KT 20/16 A3001 RMK A01 T01970159  RH  078%=      5-min Rain = 0
KHO1 241339Z 04007KT 20/16 A3001 RMK A01 T01980158  RH  078%=      5-min Rain = 0
KHO1 241340Z 04006KT 20/16 A3001 RMK A01 T01980158  RH  078%=      5-min Rain = 0
KHO1 241341Z 03007KT 20/16 A3001 RMK A01 T01990159  RH  078%=      5-min Rain = 0
KHO1 241342Z 03006KT 20/16 A3001 RMK A01 T02000159  RH  077%=      5-min Rain = 0
KHO1 241343Z 04006KT 20/16 A3002 RMK A01 T02000160  RH  078%=      5-min Rain = 0
KHO1 241344Z 04008KT 20/16 A3002 RMK A01 T02010159  RH  077%=      5-min Rain = 0
KHO1 241345Z 04007KT 20/16 A3002 RMK A01 T02010159  RH  077%=      5-min Rain = 0
KHO1 241346Z 03007KT 20/16 A3002 RMK A01 T02010158  RH  076%=      5-min Rain = 0
KHO1 241347Z 04007KT 20/16 A3002 RMK A01 T02000158  RH  076%=      5-min Rain = 0
KHO1 241348Z 04007KT 20/16 A3002 RMK A01 T02000158  RH  077%=      5-min Rain = 0
KHO1 241349Z 04007KT 20/16 A3002 RMK A01 T01990158  RH  077%=      5-min Rain = 0
KHO1 241350Z 04006KT 20/16 A3002 RMK A01 T01990159  RH  077%=      5-min Rain = 0
KHO1 241351Z 05006KT 20/16 A3002 RMK A01 T02000159  RH  077%=      5-min Rain = 0
KHO1 241352Z 06006KT 20/16 A3002 RMK A01 T02000159  RH  077%=      5-min Rain = 0
KHO1 241353Z 05007KT 20/16 A3002 RMK A01 T02000159  RH  077%=      5-min Rain = 0
KHO1 241354Z 04006KT 20/16 A3002 RMK A01 T02010160  RH  077%=      5-min Rain = 0
KHO1 241355Z 03007KT 20/16 A3002 RMK A01 T02010160  RH  077%=      5-min Rain = 0
KHO1 241356Z 04007KT 20/16 A3002 RMK A01 T02020161  RH  077%=      5-min Rain = 0
KHO1 241357Z 04007KT 20/16 A3002 RMK A01 T02040160  RH  076%=      5-min Rain = 0
KHO1 241358Z 04009KT 21/16 A3002 RMK A01 T02050160  RH  075%=      5-min Rain = 0
KHO1 241359Z 04006KT 20/16 A3002 RMK A01 T02040160  RH  075%=      5-min Rain = 0
KHO1 241400Z 04006KT 20/16 A3002 RMK A01 T02030160  RH  076%=      5-min Rain = 0
KHO1 241401Z 04007KT 20/16 A3002 RMK A01 T02030162  RH  077%=      5-min Rain = 0
KHO1 241402Z 05006KT 20/16 A3002 RMK A01 T02030163  RH  078%=      5-min Rain = 0
KHO1 241403Z 04006KT 20/16 A3002 RMK A01 T02040163  RH  077%=      5-min Rain = 0
KHO1 241404Z 04006KT 20/16 A3002 RMK A01 T02040163  RH  077%=      5-min Rain = 0
KHO1 241405Z 05006KT 21/16 A3002 RMK A01 T02060163  RH  076%=      5-min Rain = 0
KHO1 241406Z 04005KT 21/16 A3002 RMK A01 T02070163  RH  076%=      5-min Rain = 0
KHO1 241407Z 04007KT 21/16 A3002 RMK A01 T02080163  RH  075%=      5-min Rain = 0
KHO1 241408Z 04007KT 21/16 A3002 RMK A01 T02070163  RH  076%=      5-min Rain = 0
KHO1 241409Z 03007KT 21/16 A3002 RMK A01 T02070163  RH  076%=      5-min Rain = 0
KHO1 241410Z 03006KT 21/16 A3002 RMK A01 T02070164  RH  076%=      5-min Rain = 0
KHO1 241411Z 04006KT 21/16 A3002 RMK A01 T02080163  RH  076%=      5-min Rain = 0
KHO1 241412Z 04006KT 21/17 A3002 RMK A01 T02080165  RH  076%=      5-min Rain = 0
KHO1 241413Z 04005KT 21/17 A3002 RMK A01 T02080165  RH  076%=      5-min Rain = 0
KHO1 241414Z 05006KT 21/17 A3002 RMK A01 T02090165  RH  076%=      5-min Rain = 0
KHO1 241415Z 04005KT 21/16 A3002 RMK A01 T02080164  RH  076%=      5-min Rain = 0
KHO1 241416Z 06004KT 21/17 A3002 RMK A01 T02090165  RH  076%=      5-min Rain = 0
KHO1 241417Z 05005KT 21/17 A3002 RMK A01 T02090165  RH  076%=      5-min Rain = 0
KHO1 241418Z 04006KT 21/17 A3002 RMK A01 T02080165  RH  076%=      5-min Rain = 0
KHO1 241419Z 03006KT 21/17 A3002 RMK A01 T02080165  RH  076%=      5-min Rain = 0
KHO1 241420Z 03006KT 21/17 A3002 RMK A01 T02090165  RH  076%=      5-min Rain = 0
KHO1 241421Z 03007KT 21/17 A3002 RMK A01 T02080165  RH  076%=      5-min Rain = 0
KHO1 241422Z 03007KT 21/17 A3002 RMK A01 T02080166  RH  077%=      5-min Rain = 0
KHO1 241423Z 03006KT 21/17 A3002 RMK A01 T02090167  RH  077%=      5-min Rain = 0
KHO1 241424Z 02005KT 21/17 A3002 RMK A01 T02090167  RH  077%=      5-min Rain = 0
KHO1 241425Z 04005KT 21/17 A3002 RMK A01 T02110167  RH  076%=      5-min Rain = 0
KHO1 241426Z 03008KT 21/17 A3002 RMK A01 T02120166  RH  075%=      5-min Rain = 0
KHO1 241427Z 02005KT 21/17 A3002 RMK A01 T02110166  RH  075%=      5-min Rain = 0
KHO1 241428Z 02005KT 21/17 A3002 RMK A01 T02110167  RH  076%=      5-min Rain = 0
KHO1 241429Z 03006KT 21/17 A3002 RMK A01 T02120167  RH  076%=      5-min Rain = 0
KHO1 241430Z 02006KT 21/17 A3002 RMK A01 T02120167  RH  075%=      5-min Rain = 0
KHO1 241431Z 03006KT 21/17 A3002 RMK A01 T02120168  RH  076%=      5-min Rain = 0
KHO1 241432Z 05006KT 21/17 A3002 RMK A01 T02130169  RH  076%=      5-min Rain = 0
KHO1 241433Z 06003KT 21/17 A3002 RMK A01 T02140169  RH  076%=      5-min Rain = 0
KHO1 241434Z 05004KT 22/17 A3002 RMK A01 T02150170  RH  075%=      5-min Rain = 0
KHO1 241435Z 06003KT 22/17 A3002 RMK A01 T02170170  RH  074%=      5-min Rain = 0
KHO1 241436Z 04005KT 22/17 A3002 RMK A01 T02190169  RH  073%=      5-min Rain = 0
KHO1 241437Z 03005KT 22/17 A3002 RMK A01 T02180167  RH  073%=      5-min Rain = 0
KHO1 241438Z 01005KT 22/17 A3002 RMK A01 T02170167  RH  073%=      5-min Rain = 0
KHO1 241439Z 02005KT 22/17 A3002 RMK A01 T02160168  RH  074%=      5-min Rain = 0
KHO1 241440Z 04005KT 22/17 A3002 RMK A01 T02160168  RH  074%=      5-min Rain = 0
KHO1 241441Z 06005KT 22/17 A3002 RMK A01 T02170168  RH  074%=      5-min Rain = 0
KHO1 241442Z 05006KT 22/17 A3002 RMK A01 T02170167  RH  073%=      5-min Rain = 0
KHO1 241443Z 04005KT 22/17 A3002 RMK A01 T02170167  RH  073%=      5-min Rain = 0
KHO1 241444Z 03006KT 22/17 A3002 RMK A01 T02170168  RH  073%=      5-min Rain = 0
KHO1 241445Z 03005KT 22/17 A3002 RMK A01 T02160167  RH  074%=      5-min Rain = 0
KHO1 241446Z 04006KT 22/17 A3002 RMK A01 T02170169  RH  074%=      5-min Rain = 0
KHO1 241447Z 06004KT 22/17 A3002 RMK A01 T02180170  RH  074%=      5-min Rain = 0
KHO1 241448Z 07004KT 22/17 A3002 RMK A01 T02200170  RH  073%=      5-min Rain = 0
KHO1 241449Z 07003KT 22/17 A3002 RMK A01 T02220171  RH  073%=      5-min Rain = 0
KHO1 241450Z 07003KT 22/17 A3002 RMK A01 T02240171  RH  072%=      5-min Rain = 0
KHO1 241451Z 08003KT 23/17 A3002 RMK A01 T02260170  RH  071%=      5-min Rain = 0
KHO1 241452Z 05003KT 23/17 A3002 RMK A01 T02260169  RH  070%=      5-min Rain = 0
KHO1 241453Z 06003KT 23/17 A3002 RMK A01 T02250169  RH  070%=      5-min Rain = 0
KHO1 241454Z 05002KT 22/17 A3002 RMK A01 T02240169  RH  071%=      5-min Rain = 0
KHO1 241455Z 05002KT 22/17 A3002 RMK A01 T02230170  RH  072%=      5-min Rain = 0
KHO1 241456Z 06002KT 22/17 A3002 RMK A01 T02230170  RH  072%=      5-min Rain = 0
KHO1 241457Z 06002KT 22/17 A3002 RMK A01 T02230169  RH  071%=      5-min Rain = 0
KHO1 241458Z 03003KT 22/17 A3002 RMK A01 T02230169  RH  071%=      5-min Rain = 0
KHO1 241459Z 02004KT 22/17 A3002 RMK A01 T02220170  RH  072%=      5-min Rain = 0
KHO1 241500Z 02006KT 22/17 A3002 RMK A01 T02220169  RH  072%=      5-min Rain = 0
KHO1 241501Z 02004KT 22/17 A3002 RMK A01 T02200169  RH  073%=      5-min Rain = 0
KHO1 241502Z 03006KT 22/17 A3002 RMK A01 T02200169  RH  073%=      5-min Rain = 0
KHO1 241503Z 05004KT 22/17 A3002 RMK A01 T02200169  RH  073%=      5-min Rain = 0
KHO1 241504Z 03006KT 22/17 A3002 RMK A01 T02210169  RH  072%=      5-min Rain = 0
KHO1 241505Z 02006KT 22/17 A3002 RMK A01 T02210169  RH  072%=      5-min Rain = 0
KHO1 241506Z 04005KT 22/17 A3002 RMK A01 T02220170  RH  072%=      5-min Rain = 0
KHO1 241507Z 06003KT 22/17 A3002 RMK A01 T02230171  RH  072%=      5-min Rain = 0
KHO1 241508Z 06003KT 23/17 A3002 RMK A01 T02260172  RH  071%=      5-min Rain = 0
KHO1 241509Z 04003KT 23/17 A3002 RMK A01 T02290172  RH  070%=      5-min Rain = 0
KHO1 241510Z 01004KT 23/17 A3002 RMK A01 T02310170  RH  069%=      5-min Rain = 0
KHO1 241511Z 36004KT 23/17 A3002 RMK A01 T02290170  RH  069%=      5-min Rain = 0
KHO1 241512Z 01005KT 23/17 A3002 RMK A01 T02270170  RH  070%=      5-min Rain = 0
KHO1 241513Z 01005KT 23/17 A3002 RMK A01 T02270170  RH  070%=      5-min Rain = 0
KHO1 241514Z 02004KT 23/17 A3002 RMK A01 T02260169  RH  070%=      5-min Rain = 0
KHO1 241515Z 02003KT 23/17 A3002 RMK A01 T02250170  RH  071%=      5-min Rain = 0
KHO1 241516Z 03004KT 23/17 A3002 RMK A01 T02250171  RH  071%=      5-min Rain = 0
KHO1 241517Z 01003KT 23/17 A3002 RMK A01 T02260170  RH  071%=      5-min Rain = 0
KHO1 241518Z 36003KT 23/17 A3002 RMK A01 T02260169  RH  070%=      5-min Rain = 0
KHO1 241519Z 32002KT 23/17 A3002 RMK A01 T02250169  RH  071%=      5-min Rain = 0
KHO1 241520Z 33002KT 23/17 A3002 RMK A01 T02260171  RH  071%=      5-min Rain = 0
KHO1 241521Z 34003KT 23/17 A3002 RMK A01 T02270170  RH  070%=      5-min Rain = 0
KHO1 241522Z 35003KT 23/17 A3002 RMK A01 T02280168  RH  069%=      5-min Rain = 0
KHO1 241523Z 01001KT 23/17 A3002 RMK A01 T02280169  RH  069%=      5-min Rain = 0
KHO1 241524Z 02002KT 23/17 A3002 RMK A01 T02290170  RH  069%=      5-min Rain = 0
KHO1 241525Z 05003KT 23/17 A3002 RMK A01 T02310171  RH  069%=      5-min Rain = 0
KHO1 241526Z 07003KT 23/17 A3002 RMK A01 T02340172  RH  068%=      5-min Rain = 0
KHO1 241527Z 11004KT 24/17 A3002 RMK A01 T02360170  RH  066%=      5-min Rain = 0
KHO1 241528Z 12003KT 24/17 A3002 RMK A01 T02360168  RH  066%=      5-min Rain = 0
KHO1 241529Z 12003KT 23/17 A3003 RMK A01 T02330166  RH  066%=      5-min Rain = 0
KHO1 241530Z 12003KT 23/17 A3003 RMK A01 T02320167  RH  067%=      5-min Rain = 0
KHO1 241531Z 10001KT 23/17 A3003 RMK A01 T02330168  RH  067%=      5-min Rain = 0
KHO1 241532Z 09000KT 24/17 A3003 RMK A01 T02350169  RH  066%=      5-min Rain = 0
KHO1 241533Z 13001G7KT 24/17 A3003 RMK A01 T02360169  RH  066%=      5-min Rain = 0
KHO1 241534Z 14005KT 24/17 A3003 RMK A01 T02360168  RH  066%=      5-min Rain = 0
KHO1 241535Z 13003KT 23/17 A3003 RMK A01 T02340166  RH  065%=      5-min Rain = 0
KHO1 241536Z 13002KT 24/17 A3003 RMK A01 T02350167  RH  065%=      5-min Rain = 0
KHO1 241537Z 14004KT 24/17 A3003 RMK A01 T02360166  RH  065%=      5-min Rain = 0
KHO1 241538Z 16006KT 24/16 A3003 RMK A01 T02370164  RH  064%=      5-min Rain = 0
KHO1 241539Z 16004KT 23/16 A3003 RMK A01 T02340163  RH  064%=      5-min Rain = 0
KHO1 241540Z 15003KT 23/17 A3003 RMK A01 T02340165  RH  065%=      5-min Rain = 0
KHO1 241541Z 17004KT 24/17 A3003 RMK A01 T02360167  RH  065%=      5-min Rain = 0
KHO1 241542Z 17004KT 24/17 A3003 RMK A01 T02360166  RH  065%=      5-min Rain = 0
KHO1 241543Z 17004KT 23/16 A3003 RMK A01 T02340164  RH  065%=      5-min Rain = 0
KHO1 241544Z 19003KT 23/16 A3003 RMK A01 T02330163  RH  065%=      5-min Rain = 0
KHO1 241545Z 17004KT 23/17 A3003 RMK A01 T02330165  RH  065%=      5-min Rain = 0
KHO1 241546Z 19002KT 23/17 A3002 RMK A01 T02330165  RH  065%=      5-min Rain = 0
KHO1 241547Z 20003KT 23/17 A3002 RMK A01 T02330165  RH  065%=      5-min Rain = 0
KHO1 241548Z 17002KT 23/17 A3002 RMK A01 T02340166  RH  065%=      5-min Rain = 0
KHO1 241549Z 13003KT 24/17 A3002 RMK A01 T02360165  RH  065%=      5-min Rain = 0
KHO1 241550Z 11004KT 24/17 A3002 RMK A01 T02360166  RH  065%=      5-min Rain = 0
KHO1 241551Z 12005KT 24/17 A3002 RMK A01 T02400168  RH  064%=      5-min Rain = 0
KHO1 241552Z 11006KT 25/17 A3002 RMK A01 T02450168  RH  062%=      5-min Rain = 0
KHO1 241553Z 12004KT 25/17 A3002 RMK A01 T02470165  RH  060%=      5-min Rain = 0
KHO1 241554Z 11004KT 25/16 A3002 RMK A01 T02460164  RH  060%=      5-min Rain = 0
KHO1 241555Z 08002KT 25/17 A3002 RMK A01 T02480166  RH  060%=      5-min Rain = 0
KHO1 241556Z 08001KT 25/17 A3002 RMK A01 T02510168  RH  060%=      5-min Rain = 0
KHO1 241557Z 07001KT 25/17 A3002 RMK A01 T02540166  RH  058%=      5-min Rain = 0
KHO1 241558Z 14004KT 25/16 A3002 RMK A01 T02500161  RH  058%=      5-min Rain = 0
KHO1 241559Z 13003KT 25/16 A3002 RMK A01 T02470163  RH  059%=      5-min Rain = 0
KHO1 241600Z 10003KT 25/16 A3002 RMK A01 T02460162  RH  060%=      5-min Rain = 0
KHO1 241601Z 12004KT 25/16 A3002 RMK A01 T02460164  RH  060%=      5-min Rain = 0
KHO1 241602Z 12004KT 25/17 A3002 RMK A01 T02490165  RH  060%=      5-min Rain = 0
KHO1 241603Z 13005KT 25/17 A3002 RMK A01 T02510166  RH  059%=      5-min Rain = 0
KHO1 241604Z 13005KT 25/16 A3002 RMK A01 T02530164  RH  058%=      5-min Rain = 0
KHO1 241605Z 13002KT 25/16 A3003 RMK A01 T02520163  RH  058%=      5-min Rain = 0
KHO1 241606Z 14002KT 25/16 A3002 RMK A01 T02520163  RH  058%=      5-min Rain = 0
KHO1 241607Z 13002KT 26/17 A3002 RMK A01 T02560166  RH  058%=      5-min Rain = 0
KHO1 241608Z 16004KT 26/16 A3002 RMK A01 T02560162  RH  056%=      5-min Rain = 0
KHO1 241609Z 18004KT 25/16 A3002 RMK A01 T02490157  RH  056%=      5-min Rain = 0
KHO1 241610Z 19002KT 24/16 A3002 RMK A01 T02440158  RH  059%=      5-min Rain = 0
KHO1 241611Z 17002KT 24/16 A3002 RMK A01 T02430161  RH  060%=      5-min Rain = 0
KHO1 241612Z 12005KT 24/16 A3002 RMK A01 T02440161  RH  060%=      5-min Rain = 0
KHO1 241613Z 12005KT 25/16 A3002 RMK A01 T02470163  RH  059%=      5-min Rain = 0
KHO1 241614Z 14007KT 25/16 A3002 RMK A01 T02520164  RH  058%=      5-min Rain = 0
KHO1 241615Z 13006KT 25/16 A3002 RMK A01 T02540162  RH  057%=      5-min Rain = 0
KHO1 241616Z 11005KT 25/16 A3002 RMK A01 T02540161  RH  056%=      5-min Rain = 0
KHO1 241617Z 10004KT 26/16 A3002 RMK A01 T02560161  RH  056%=      5-min Rain = 0
KHO1 241618Z 14006KT 25/16 A3002 RMK A01 T02540157  RH  055%=      5-min Rain = 0
KHO1 241619Z 12006KT 25/16 A3002 RMK A01 T02510158  RH  056%=      5-min Rain = 0
KHO1 241620Z 10003KT 25/16 A3002 RMK A01 T02530159  RH  056%=      5-min Rain = 0
KHO1 241621Z 08003KT 26/16 A3002 RMK A01 T02560160  RH  055%=      5-min Rain = 0
KHO1 241622Z 09004KT 26/16 A3002 RMK A01 T02580161  RH  055%=      5-min Rain = 0
KHO1 241623Z 09002KT 26/16 A3002 RMK A01 T02610160  RH  054%=      5-min Rain = 0
KHO1 241624Z 11003KT 26/16 A3002 RMK A01 T02610159  RH  053%=      5-min Rain = 0
KHO1 241625Z 13005KT 26/16 A3002 RMK A01 T02600159  RH  054%=      5-min Rain = 0
KHO1 241626Z 13005KT 26/16 A3002 RMK A01 T02590161  RH  055%=      5-min Rain = 0
KHO1 241627Z 10004KT 26/16 A3002 RMK A01 T02620164  RH  055%=      5-min Rain = 0
KHO1 241628Z 10004KT 26/16 A3002 RMK A01 T02630160  RH  053%=      5-min Rain = 0
KHO1 241629Z 08002KT 26/16 A3002 RMK A01 T02630159  RH  053%=      5-min Rain = 0
KHO1 241630Z 09002KT 27/16 A3002 RMK A01 T02660162  RH  053%=      5-min Rain = 0
KHO1 241631Z 10001KT 27/16 A3002 RMK A01 T02680164  RH  053%=      5-min Rain = 0
KHO1 241632Z 07004KT 27/16 A3002 RMK A01 T02710162  RH  051%=      5-min Rain = 0
KHO1 241633Z 09003KT 27/16 A3002 RMK A01 T02710162  RH  051%=      5-min Rain = 0
KHO1 241634Z 10004KT 27/16 A3002 RMK A01 T02710161  RH  051%=      5-min Rain = 0
KHO1 241635Z 14005KT 27/15 A3002 RMK A01 T02680154  RH  050%=      5-min Rain = 0
KHO1 241636Z 11005KT 26/15 A3002 RMK A01 T02620153  RH  051%=      5-min Rain = 0
KHO1 241637Z 12003KT 26/15 A3002 RMK A01 T02620151  RH  050%=      5-min Rain = 0
KHO1 241638Z 12005KT 26/15 A3002 RMK A01 T02590151  RH  051%=      5-min Rain = 0
KHO1 241639Z 10004KT 26/15 A3002 RMK A01 T02580152  RH  052%=      5-min Rain = 0
KHO1 241640Z 06004KT 26/15 A3002 RMK A01 T02620151  RH  051%=      5-min Rain = 0
KHO1 241641Z 09003KT 26/16 A3002 RMK A01 T02640156  RH  052%=      5-min Rain = 0
KHO1 241642Z 07002KT 27/16 A3002 RMK A01 T02660156  RH  051%=      5-min Rain = 0
KHO1 241643Z 12004KT 27/16 A3002 RMK A01 T02670157  RH  051%=      5-min Rain = 0
KHO1 241644Z 13005KT 26/16 A3002 RMK A01 T02640155  RH  051%=      5-min Rain = 0
KHO1 241645Z 16004KT 26/15 A3002 RMK A01 T02600148  RH  050%=      5-min Rain = 0
KHO1 241646Z 19003KT 26/15 A3002 RMK A01 T02560146  RH  051%=      5-min Rain = 0
KHO1 241647Z 19002KT 26/15 A3002 RMK A01 T02550148  RH  052%=      5-min Rain = 0
KHO1 241648Z 21001KT 26/15 A3002 RMK A01 T02560150  RH  052%=      5-min Rain = 0
KHO1 241649Z 13002KT 26/15 A3002 RMK A01 T02570151  RH  052%=      5-min Rain = 0
KHO1 241650Z 11003KT 26/16 A3002 RMK A01 T02600155  RH  052%=      5-min Rain = 0
KHO1 241651Z 12005KT 26/16 A3002 RMK A01 T02610155  RH  052%=      5-min Rain = 0
KHO1 241652Z 12005KT 26/16 A3002 RMK A01 T02630156  RH  052%=      5-min Rain = 0
KHO1 241653Z 12004KT 26/16 A3002 RMK A01 T02640155  RH  051%=      5-min Rain = 0
KHO1 241654Z 10002KT 27/16 A3002 RMK A01 T02670157  RH  051%=      5-min Rain = 0
KHO1 241655Z 11003KT 27/15 A3002 RMK A01 T02690154  RH  049%=      5-min Rain = 0
KHO1 241656Z 09002KT 27/16 A3002 RMK A01 T02670155  RH  050%=      5-min Rain = 0
KHO1 241657Z 14001KT 27/15 A3002 RMK A01 T02690154  RH  049%=      5-min Rain = 0
KHO1 241658Z 17002KT 27/15 A3002 RMK A01 T02670148  RH  048%=      5-min Rain = 0
KHO1 241659Z 33002KT 27/15 A3002 RMK A01 T02650149  RH  049%=      5-min Rain = 0
KHO1 241700Z 34003KT 27/15 A3002 RMK A01 T02650151  RH  050%=      5-min Rain = 0
KHO1 241701Z 31002KT 26/15 A3002 RMK A01 T02620153  RH  051%=      5-min Rain = 0
KHO1 241702Z 35001KT 26/15 A3002 RMK A01 T02630149  RH  049%=      5-min Rain = 0
KHO1 241703Z 12001KT 26/15 A3002 RMK A01 T02640149  RH  049%=      5-min Rain = 0
KHO1 241704Z 16003KT 27/15 A3002 RMK A01 T02660152  RH  049%=      5-min Rain = 0
KHO1 241705Z 17005KT 27/15 A3002 RMK A01 T02660149  RH  049%=      5-min Rain = 0
KHO1 241706Z 16003KT 26/15 A3002 RMK A01 T02620147  RH  049%=      5-min Rain = 0
KHO1 241707Z 15005KT 26/15 A3002 RMK A01 T02620146  RH  049%=      5-min Rain = 0
KHO1 241708Z 15005KT 26/15 A3002 RMK A01 T02620148  RH  049%=      5-min Rain = 0
KHO1 241709Z 14006KT 26/15 A3002 RMK A01 T02620147  RH  049%=      5-min Rain = 0
KHO1 241710Z 14005KT 26/15 A3002 RMK A01 T02610146  RH  049%=      5-min Rain = 0
KHO1 241711Z 15004KT 26/15 A3002 RMK A01 T02610147  RH  049%=      5-min Rain = 0
KHO1 241712Z 14004KT 26/15 A3002 RMK A01 T02600146  RH  049%=      5-min Rain = 0
KHO1 241713Z 17003KT 26/15 A3002 RMK A01 T02620147  RH  049%=      5-min Rain = 0
KHO1 241714Z 14002KT 26/15 A3002 RMK A01 T02630146  RH  049%=      5-min Rain = 0
KHO1 241715Z 25001KT 26/15 A3002 RMK A01 T02640146  RH  048%=      5-min Rain = 0
KHO1 241716Z 27002KT 27/15 A3002 RMK A01 T02660149  RH  049%=      5-min Rain = 0
KHO1 241717Z 28002KT 27/15 A3002 RMK A01 T02680148  RH  047%=      5-min Rain = 0
KHO1 241718Z 31001KT 27/15 A3002 RMK A01 T02670146  RH  047%=      5-min Rain = 0
KHO1 241719Z 16001KT 27/15 A3002 RMK A01 T02670149  RH  048%=      5-min Rain = 0
KHO1 241720Z 07003KT 27/15 A3002 RMK A01 T02710149  RH  047%=      5-min Rain = 0
KHO1 241721Z 06004KT 28/15 A3002 RMK A01 T02750146  RH  045%=      5-min Rain = 0
KHO1 241722Z 07004KT 28/15 A3002 RMK A01 T02770146  RH  045%=      5-min Rain = 0
KHO1 241723Z 06004KT 28/15 A3002 RMK A01 T02780147  RH  045%=      5-min Rain = 0
KHO1 241724Z 10004KT 28/15 A3002 RMK A01 T02810147  RH  044%=      5-min Rain = 0
KHO1 241725Z 12005KT 28/14 A3002 RMK A01 T02830143  RH  042%=      5-min Rain = 0
KHO1 241726Z 12005KT 28/14 A3002 RMK A01 T02780142  RH  043%=      5-min Rain = 0
KHO1 241727Z 13004KT 28/14 A3002 RMK A01 T02750139  RH  043%=      5-min Rain = 0
KHO1 241728Z 14005KT 27/14 A3002 RMK A01 T02700140  RH  045%=      5-min Rain = 0
KHO1 241729Z 12004KT 27/14 A3002 RMK A01 T02690143  RH  046%=      5-min Rain = 0
KHO1 241730Z 15003KT 27/14 A3002 RMK A01 T02700140  RH  045%=      5-min Rain = 0
KHO1 241731Z 18003KT 27/14 A3002 RMK A01 T02670138  RH  045%=      5-min Rain = 0
KHO1 241732Z 20002KT 26/14 A3002 RMK A01 T02640138  RH  046%=      5-min Rain = 0
KHO1 241733Z 21003KT 26/14 A3002 RMK A01 T02630138  RH  046%=      5-min Rain = 0
KHO1 241734Z 18004KT 26/14 A3002 RMK A01 T02630139  RH  046%=      5-min Rain = 0
KHO1 241735Z 17002KT 26/14 A3001 RMK A01 T02640136  RH  045%=      5-min Rain = 0
KHO1 241736Z 19003KT 26/14 A3001 RMK A01 T02620137  RH  046%=      5-min Rain = 0
KHO1 241737Z 22004KT 27/14 A3001 RMK A01 T02650139  RH  046%=      5-min Rain = 0
KHO1 241738Z 25003KT 27/14 A3001 RMK A01 T02680138  RH  045%=      5-min Rain = 0
KHO1 241739Z 23003KT 27/14 A3001 RMK A01 T02690137  RH  044%=      5-min Rain = 0
KHO1 241740Z 21002KT 27/14 A3001 RMK A01 T02700135  RH  043%=      5-min Rain = 0
KHO1 241741Z 10006KT 27/14 A3001 RMK A01 T02720138  RH  044%=      5-min Rain = 0
KHO1 241742Z 13006KT 28/14 A3001 RMK A01 T02750136  RH  042%=      5-min Rain = 0
KHO1 241743Z 16006KT 28/13 A3001 RMK A01 T02770131  RH  041%=      5-min Rain = 0
KHO1 241744Z 16006KT 28/13 A3001 RMK A01 T02750129  RH  041%=      5-min Rain = 0
KHO1 241745Z 17007KT 27/13 A3001 RMK A01 T02730128  RH  041%=      5-min Rain = 0
KHO1 241746Z 18004KT 27/13 A3001 RMK A01 T02680128  RH  042%=      5-min Rain = 0
KHO1 241747Z 20003KT 27/13 A3001 RMK A01 T02660131  RH  043%=      5-min Rain = 0
KHO1 241748Z 15004KT 27/13 A3001 RMK A01 T02670131  RH  043%=      5-min Rain = 0
KHO1 241749Z 11004KT 27/14 A3001 RMK A01 T02730135  RH  043%=      5-min Rain = 0
KHO1 241750Z 11006KT 28/13 A3001 RMK A01 T02790134  RH  041%=      5-min Rain = 0
KHO1 241751Z 09005G10KT 28/13 A3001 RMK A01 T02830132  RH  040%=      5-min Rain = 0
KHO1 241752Z 10004KT 29/13 A3001 RMK A01 T02860132  RH  039%=      5-min Rain = 0
KHO1 241753Z 13004KT 29/13 A3001 RMK A01 T02860126  RH  037%=      5-min Rain = 0
KHO1 241754Z 12003KT 28/12 A3001 RMK A01 T02810124  RH  038%=      5-min Rain = 0
KHO1 241755Z 09003KT 28/12 A3001 RMK A01 T02770124  RH  039%=      5-min Rain = 0
KHO1 241756Z 10006KT 28/13 A3001 RMK A01 T02800130  RH  039%=      5-min Rain = 0
KHO1 241757Z 09003KT 29/13 A3001 RMK A01 T02860131  RH  038%=      5-min Rain = 0
KHO1 241758Z 13005KT 29/13 A3001 RMK A01 T02890129  RH  037%=      5-min Rain = 0
KHO1 241759Z 14007KT 28/12 A3001 RMK A01 T02840123  RH  037%=      5-min Rain = 0
KHO1 241800Z 15005KT 28/12 A3001 RMK A01 T02790124  RH  038%=      5-min Rain = 0
KHO1 241801Z 12004KT 28/13 A3001 RMK A01 T02780126  RH  039%=      5-min Rain = 0
KHO1 241802Z 13004KT 28/13 A3001 RMK A01 T02790126  RH  039%=      5-min Rain = 0
KHO1 241803Z 11003KT 28/13 A3001 RMK A01 T02770126  RH  039%=      5-min Rain = 0
KHO1 241804Z 34000KT 28/13 A3001 RMK A01 T02800125  RH  039%=      5-min Rain = 0
KHO1 241805Z 01002KT 28/13 A3001 RMK A01 T02820125  RH  038%=      5-min Rain = 0
KHO1 241806Z 08001KT 28/12 A3001 RMK A01 T02830124  RH  037%=      5-min Rain = 0
KHO1 241807Z 10002KT 28/13 A3001 RMK A01 T02840127  RH  038%=      5-min Rain = 0
KHO1 241808Z 11005KT 29/12 A30 RMK A01 T02870124  RH  037%=      5-min Rain = 0
KHO1 241809Z 09002KT 29/12 A30 RMK A01 T02900124  RH  036%=      5-min Rain = 0
KHO1 241810Z 08003KT 29/12 A30 RMK A01 T02940120  RH  034%=      5-min Rain = 0
KHO1 241811Z 06002KT 29/12 A30 RMK A01 T02940121  RH  034%=      5-min Rain = 0
KHO1 241812Z 08003KT 30/12 A30 RMK A01 T02950121  RH  034%=      5-min Rain = 0
KHO1 241813Z 08003KT 30/12 A30 RMK A01 T02960121  RH  034%=      5-min Rain = 0
KHO1 241814Z 08003KT 30/12 A30 RMK A01 T02980122  RH  034%=      5-min Rain = 0
KHO1 241815Z 08003KT 30/12 A30 RMK A01 T03000121  RH  033%=      5-min Rain = 0
KHO1 241816Z 13003KT 30/12 A30 RMK A01 T03000119  RH  033%=      5-min Rain = 0
KHO1 241817Z 18005KT 30/12 A30 RMK A01 T02950115  RH  033%=      5-min Rain = 0
KHO1 241818Z 19004KT 29/11 A30 RMK A01 T02870110  RH  033%=      5-min Rain = 0
KHO1 241819Z 19005KT 28/11 A30 RMK A01 T02840112  RH  035%=      5-min Rain = 0
KHO1 241820Z 15004KT 28/11 A30 RMK A01 T02810113  RH  035%=      5-min Rain = 0
KHO1 241821Z 15003KT 28/12 A30 RMK A01 T02810117  RH  036%=      5-min Rain = 0
KHO1 241822Z 16004KT 28/12 A30 RMK A01 T02820117  RH  036%=      5-min Rain = 0
KHO1 241823Z 18004KT 28/11 A30 RMK A01 T02790111  RH  035%=      5-min Rain = 0
KHO1 241824Z 18003KT 28/11 A30 RMK A01 T02770114  RH  036%=      5-min Rain = 0
KHO1 241825Z 16004KT 28/11 A30 RMK A01 T02770114  RH  036%=      5-min Rain = 0
KHO1 241826Z 17004KT 28/12 A30 RMK A01 T02770116  RH  037%=      5-min Rain = 0
KHO1 241827Z 17004KT 28/12 A30 RMK A01 T02760116  RH  037%=      5-min Rain = 0
KHO1 241828Z 17005KT 28/12 A30 RMK A01 T02780115  RH  036%=      5-min Rain = 0
KHO1 241829Z 18005KT 28/11 A30 RMK A01 T02790111  RH  035%=      5-min Rain = 0
KHO1 241830Z 16006KT 28/11 A2999 RMK A01 T02790111  RH  035%=      5-min Rain = 0
KHO1 241831Z 14007KT 28/11 A2999 RMK A01 T02790113  RH  036%=      5-min Rain = 0
KHO1 241832Z 16006KT 28/11 A2999 RMK A01 T02770113  RH  036%=      5-min Rain = 0
KHO1 241833Z 15005KT 28/11 A2999 RMK A01 T02760114  RH  036%=      5-min Rain = 0
KHO1 241834Z 15006KT 28/12 A2999 RMK A01 T02770115  RH  036%=      5-min Rain = 0
KHO1 241835Z 15006KT 28/12 A2999 RMK A01 T02800115  RH  036%=      5-min Rain = 0
KHO1 241836Z 15005KT 28/11 A2999 RMK A01 T02810114  RH  035%=      5-min Rain = 0
KHO1 241837Z 13006KT 28/11 A2999 RMK A01 T02810111  RH  035%=      5-min Rain = 0
KHO1 241838Z 13007KT 28/11 A2999 RMK A01 T02800112  RH  035%=      5-min Rain = 0
KHO1 241839Z 14003KT 28/11 A2999 RMK A01 T02800112  RH  035%=      5-min Rain = 0
KHO1 241840Z 13004KT 28/11 A2999 RMK A01 T02800109  RH  035%=      5-min Rain = 0
KHO1 241841Z 13003KT 28/11 A2999 RMK A01 T02810114  RH  036%=      5-min Rain = 0
KHO1 241842Z 12001KT 28/11 A2999 RMK A01 T02840112  RH  034%=      5-min Rain = 0
KHO1 241843Z 10003KT 29/12 A2999 RMK A01 T02860116  RH  035%=      5-min Rain = 0
KHO1 241844Z 09002KT 29/12 A2999 RMK A01 T02910115  RH  034%=      5-min Rain = 0
KHO1 241845Z 10001KT 29/11 A2999 RMK A01 T02940112  RH  032%=      5-min Rain = 0
KHO1 241846Z 16001KT 29/11 A2999 RMK A01 T02910108  RH  032%=      5-min Rain = 0
KHO1 241847Z 21001KT 29/11 A2999 RMK A01 T02870108  RH  033%=      5-min Rain = 0
KHO1 241848Z 26002KT 29/11 A2998 RMK A01 T02870109  RH  033%=      5-min Rain = 0
KHO1 241849Z 31003KT 29/11 A2998 RMK A01 T02880111  RH  034%=      5-min Rain = 0
KHO1 241850Z 32002KT 29/11 A2998 RMK A01 T02870112  RH  034%=      5-min Rain = 0
KHO1 241851Z 33000KT 29/11 A2998 RMK A01 T02860111  RH  034%=      5-min Rain = 0
KHO1 241852Z 08000KT 29/11 A2998 RMK A01 T02850111  RH  034%=      5-min Rain = 0
KHO1 241853Z 08001KT 29/11 A2998 RMK A01 T02870114  RH  034%=      5-min Rain = 0
KHO1 241854Z 08002KT 29/11 A2998 RMK A01 T02910113  RH  033%=      5-min Rain = 0
KHO1 241855Z 10001KT 30/11 A2998 RMK A01 T02960113  RH  032%=      5-min Rain = 0
KHO1 241856Z 15001KT 30/11 A2998 RMK A01 T02980110  RH  031%=      5-min Rain = 0
KHO1 241857Z 06001KT 30/11 A2998 RMK A01 T02990114  RH  032%=      5-min Rain = 0
KHO1 241858Z 07002KT 30/11 A2998 RMK A01 T03020113  RH  031%=      5-min Rain = 0
KHO1 241859Z 36001KT 30/11 A2998 RMK A01 T03030112  RH  031%=      5-min Rain = 0
KHO1 241900Z 12002KT 30/11 A2998 RMK A01 T03020110  RH  031%=      5-min Rain = 0
KHO1 241901Z 11003KT 30/11 A2998 RMK A01 T02970109  RH  031%=      5-min Rain = 0
KHO1 241902Z 11003KT 29/11 A2998 RMK A01 T02940108  RH  031%=      5-min Rain = 0
KHO1 241903Z 13002KT 29/11 A2998 RMK A01 T02940109  RH  032%=      5-min Rain = 0
KHO1 241904Z 12001KT 30/11 A2997 RMK A01 T02960111  RH  032%=      5-min Rain = 0
KHO1 241905Z 11003KT 30/11 A2998 RMK A01 T02960108  RH  031%=      5-min Rain = 0
KHO1 241906Z 15001KT 30/11 A2997 RMK A01 T02960106  RH  031%=      5-min Rain = 0
KHO1 241907Z 05002KT 30/11 A2997 RMK A01 T02960106  RH  031%=      5-min Rain = 0
KHO1 241908Z 12004KT 30/10 A2997 RMK A01 T02950103  RH  030%=      5-min Rain = 0
KHO1 241909Z 13003KT 30/10 A2997 RMK A01 T02950101  RH  030%=      5-min Rain = 0
KHO1 241910Z 13007KT 29/10 A2997 RMK A01 T02930101  RH  030%=      5-min Rain = 0
KHO1 241911Z 14007KT 29/10 A2997 RMK A01 T02920096  RH  030%=      5-min Rain = 0
KHO1 241912Z 13003KT 29/10 A2997 RMK A01 T02890095  RH  030%=      5-min Rain = 0
KHO1 241913Z 08002KT 29/10 A2997 RMK A01 T02910097  RH  030%=      5-min Rain = 0
KHO1 241914Z 09002KT 29/09 A2997 RMK A01 T02940094  RH  029%=      5-min Rain = 0
KHO1 241915Z 18002KT 29/10 A2997 RMK A01 T02940095  RH  029%=      5-min Rain = 0
KHO1 241916Z 14006KT 29/10 A2997 RMK A01 T02920095  RH  029%=      5-min Rain = 0
KHO1 241917Z 12005KT 29/10 A2997 RMK A01 T02940098  RH  029%=      5-min Rain = 0
KHO1 241918Z 13008KT 30/10 A2997 RMK A01 T02970100  RH  029%=      5-min Rain = 0
KHO1 241919Z 13005KT 30/10 A2997 RMK A01 T02950099  RH  030%=      5-min Rain = 0
KHO1 241920Z 16004KT 29/10 A2997 RMK A01 T02920098  RH  030%=      5-min Rain = 0
KHO1 241921Z 13002KT 29/10 A2997 RMK A01 T02910099  RH  030%=      5-min Rain = 0
KHO1 241922Z 08000KT 29/10 A2997 RMK A01 T02940099  RH  030%=      5-min Rain = 0
KHO1 241923Z 05000KT 30/10 A2997 RMK A01 T02970099  RH  029%=      5-min Rain = 0
KHO1 241924Z 01001KT 30/10 A2996 RMK A01 T02980102  RH  030%=      5-min Rain = 0
KHO1 241925Z 28002KT 30/10 A2996 RMK A01 T03020103  RH  029%=      5-min Rain = 0
KHO1 241926Z 32002KT 31/10 A2996 RMK A01 T03060101  RH  028%=      5-min Rain = 0
KHO1 241927Z 02004KT 31/10 A2996 RMK A01 T03050099  RH  028%=      5-min Rain = 0
KHO1 241928Z 02005KT 30/10 A2996 RMK A01 T03020102  RH  029%=      5-min Rain = 0
KHO1 241929Z 03007KT 30/10 A2996 RMK A01 T03030101  RH  029%=      5-min Rain = 0
KHO1 241930Z 02008KT 30/10 A2996 RMK A01 T03030099  RH  028%=      5-min Rain = 0
KHO1 241931Z 01007KT 30/10 A2996 RMK A01 T03020099  RH  029%=      5-min Rain = 0
KHO1 241932Z 03007KT 30/10 A2996 RMK A01 T03010101  RH  029%=      5-min Rain = 0
KHO1 241933Z 04007KT 30/10 A2996 RMK A01 T03030100  RH  028%=      5-min Rain = 0
KHO1 241934Z 03005KT 30/10 A2996 RMK A01 T03040100  RH  028%=      5-min Rain = 0
KHO1 241935Z 07005KT 31/10 A2996 RMK A01 T03070102  RH  028%=      5-min Rain = 0
KHO1 241936Z 05004KT 31/10 A2996 RMK A01 T03100100  RH  027%=      5-min Rain = 0
KHO1 241937Z 05005KT 31/10 A2996 RMK A01 T03110101  RH  027%=      5-min Rain = 0
KHO1 241938Z 05004KT 31/10 A2996 RMK A01 T03120098  RH  027%=      5-min Rain = 0
KHO1 241939Z 07006KT 31/10 A2996 RMK A01 T03110097  RH  026%=      5-min Rain = 0
KHO1 241940Z 09006KT 31/09 A2996 RMK A01 T03130092  RH  025%=      5-min Rain = 0
KHO1 241941Z 09005KT 31/09 A2996 RMK A01 T03140091  RH  025%=      5-min Rain = 0
KHO1 241942Z 07004KT 32/09 A2996 RMK A01 T03160088  RH  024%=      5-min Rain = 0
KHO1 241943Z 08002KT 32/09 A2996 RMK A01 T03170087  RH  024%=      5-min Rain = 0
KHO1 241944Z 05003KT 32/09 A2996 RMK A01 T03190085  RH  024%=      5-min Rain = 0
KHO1 241945Z 05004KT 32/08 A2996 RMK A01 T03180084  RH  023%=      5-min Rain = 0
KHO1 241946Z 03004KT 32/08 A2996 RMK A01 T03160083  RH  024%=      5-min Rain = 0
KHO1 241947Z 03004KT 31/08 A2995 RMK A01 T03130084  RH  024%=      5-min Rain = 0
KHO1 241948Z 05003KT 31/09 A2995 RMK A01 T03120086  RH  025%=      5-min Rain = 0
KHO1 241949Z 06003KT 31/09 A2995 RMK A01 T03140087  RH  025%=      5-min Rain = 0
KHO1 241950Z 05002KT 32/09 A2995 RMK A01 T03160086  RH  024%=      5-min Rain = 0
KHO1 241951Z 04000KT 32/08 A2995 RMK A01 T03150082  RH  024%=      5-min Rain = 0
KHO1 241952Z 28000KT 31/08 A2995 RMK A01 T03100080  RH  024%=      5-min Rain = 0
KHO1 241953Z 03002KT 31/08 A2995 RMK A01 T03090083  RH  025%=      5-min Rain = 0
KHO1 241954Z 11005KT 31/09 A2995 RMK A01 T03100087  RH  025%=      5-min Rain = 0
KHO1 241955Z 10007KT 31/09 A2995 RMK A01 T03120089  RH  025%=      5-min Rain = 0
KHO1 241956Z 11004KT 31/09 A2995 RMK A01 T03130087  RH  025%=      5-min Rain = 0
KHO1 241957Z 06001KT 31/08 A2995 RMK A01 T03100084  RH  024%=      5-min Rain = 0
KHO1 241958Z 06002KT 31/09 A2995 RMK A01 T03120091  RH  025%=      5-min Rain = 0
KHO1 241959Z 12003KT 31/09 A2995 RMK A01 T03140089  RH  025%=      5-min Rain = 0
KHO1 242000Z 09003KT 31/09 A2995 RMK A01 T03130088  RH  025%=      5-min Rain = 0
KHO1 242001Z 05001KT 32/09 A2995 RMK A01 T03150092  RH  025%=      5-min Rain = 0
KHO1 242002Z 21001KT 32/09 A2995 RMK A01 T03190089  RH  024%=      5-min Rain = 0
KHO1 242003Z 14002KT 32/09 A2995 RMK A01 T03210087  RH  024%=      5-min Rain = 0
KHO1 242004Z 00002KT 32/09 A2995 RMK A01 T03230087  RH  023%=      5-min Rain = 0
KHO1 242005Z 01003KT 32/09 A2995 RMK A01 T03210089  RH  024%=      5-min Rain = 0
KHO1 242006Z 02003KT 32/09 A2995 RMK A01 T03180086  RH  024%=      5-min Rain = 0
KHO1 242007Z 34005KT 32/09 A2995 RMK A01 T03170085  RH  024%=      5-min Rain = 0
KHO1 242008Z 36006KT 31/08 A2995 RMK A01 T03130084  RH  024%=      5-min Rain = 0
KHO1 242009Z 34005KT 31/08 A2995 RMK A01 T03100084  RH  025%=      5-min Rain = 0
KHO1 242010Z 35005KT 31/08 A2995 RMK A01 T03070084  RH  025%=      5-min Rain = 0
KHO1 242011Z 34004KT 31/08 A2995 RMK A01 T03060084  RH  025%=      5-min Rain = 0
KHO1 242012Z 34002KT 31/08 A2995 RMK A01 T03050084  RH  025%=      5-min Rain = 0
KHO1 242013Z 32001KT 31/09 A2995 RMK A01 T03070088  RH  026%=      5-min Rain = 0
KHO1 242014Z 32004KT 31/08 A2995 RMK A01 T03100080  RH  024%=      5-min Rain = 0
KHO1 242015Z 35003KT 31/08 A2995 RMK A01 T03130082  RH  024%=      5-min Rain = 0
KHO1 242016Z 34003KT 31/08 A2995 RMK A01 T03140083  RH  024%=      5-min Rain = 0
KHO1 242017Z 34003KT 32/08 A2995 RMK A01 T03150078  RH  023%=      5-min Rain = 0
KHO1 242018Z 03004KT 32/07 A2995 RMK A01 T03160070  RH  022%=      5-min Rain = 0
KHO1 242019Z 04004KT 32/07 A2995 RMK A01 T03170068  RH  021%=      5-min Rain = 0
KHO1 242020Z 05004KT 32/07 A2995 RMK A01 T03200065  RH  020%=      5-min Rain = 0
KHO1 242021Z 03003KT 32/07 A2995 RMK A01 T03220065  RH  020%=      5-min Rain = 0
KHO1 242022Z 03005KT 32/07 A2995 RMK A01 T03210067  RH  020%=      5-min Rain = 0
KHO1 242023Z 02003KT 32/06 A2995 RMK A01 T03190064  RH  020%=      5-min Rain = 0
KHO1 242024Z 01003KT 32/07 A2995 RMK A01 T03170068  RH  021%=      5-min Rain = 0
KHO1 242025Z 03004KT 32/08 A2995 RMK A01 T03160075  RH  022%=      5-min Rain = 0
KHO1 242026Z 01004KT 31/07 A2994 RMK A01 T03140073  RH  022%=      5-min Rain = 0
KHO1 242027Z 10005KT 31/08 A2994 RMK A01 T03140076  RH  023%=      5-min Rain = 0
KHO1 242028Z 17005G11KT 32/07 A2994 RMK A01 T03200074  RH  022%=      5-min Rain = 0
KHO1 242029Z 19006KT 32/06 A2995 RMK A01 T03180056  RH  019%=      5-min Rain = 0
KHO1 242030Z 19006KT 31/05 A2995 RMK A01 T03140052  RH  019%=      5-min Rain = 0
KHO1 242031Z 18004KT 31/05 A2994 RMK A01 T03100053  RH  020%=      5-min Rain = 0
KHO1 242032Z 19001KT 31/05 A2994 RMK A01 T03080050  RH  020%=      5-min Rain = 0
KHO1 242033Z 19000KT 31/05 A2994 RMK A01 T03100052  RH  020%=      5-min Rain = 0
KHO1 242034Z 16002KT 31/05 A2994 RMK A01 T03130053  RH  019%=      5-min Rain = 0
KHO1 242035Z 13004KT 32/05 A2994 RMK A01 T03160054  RH  019%=      5-min Rain = 0
KHO1 242036Z 12004KT 31/05 A2994 RMK A01 T03120054  RH  020%=      5-min Rain = 0
KHO1 242037Z 18005KT 31/05 A2994 RMK A01 T03120054  RH  020%=      5-min Rain = 0
KHO1 242038Z 15003KT 31/05 A2994 RMK A01 T03100052  RH  020%=      5-min Rain = 0
KHO1 242039Z 32005KT 31/06 A2994 RMK A01 T03110059  RH  021%=      5-min Rain = 0
KHO1 242040Z 32004KT 31/06 A2994 RMK A01 T03130057  RH  020%=      5-min Rain = 0
KHO1 242041Z 30004KT 31/02 A2994 RMK A01 T03130019  RH  016%=      5-min Rain = 0
KHO1 242042Z 24008KT 31/00 A2994 RMK A01 T03130002  RH  014%=      5-min Rain = 0
KHO1 242043Z 24008KT 31/01 A2994 RMK A01 T03140005  RH  014%=      5-min Rain = 0
KHO1 242044Z 26008KT 32/01 A2994 RMK A01 T03200009  RH  014%=      5-min Rain = 0
KHO1 242045Z 27005KT 32/01 A2994 RMK A01 T03210007  RH  013%=      5-min Rain = 0
KHO1 242046Z 24006KT 32/M00 A2994 RMK A01 T03221001  RH  013%=      5-min Rain = 0
KHO1 242047Z 25002KT 32/M00 A2994 RMK A01 T03181002  RH  013%=      5-min Rain = 0
KHO1 242048Z 25003KT 32/00 A2994 RMK A01 T03190004  RH  013%=      5-min Rain = 0
KHO1 242049Z 24006KT 32/01 A2994 RMK A01 T03210008  RH  014%=      5-min Rain = 0
KHO1 242050Z 24009KT 32/01 A2994 RMK A01 T03200008  RH  014%=      5-min Rain = 0
KHO1 242051Z 24009KT 32/01 A2993 RMK A01 T03190010  RH  014%=      5-min Rain = 0
KHO1 242052Z 21010KT 32/01 A2993 RMK A01 T03220013  RH  014%=      5-min Rain = 0
KHO1 242053Z 22012KT 32/01 A2993 RMK A01 T03190005  RH  013%=      5-min Rain = 0
KHO1 242054Z 22010KT 32/01 A2993 RMK A01 T03190007  RH  014%=      5-min Rain = 0
KHO1 242055Z 24012KT 32/00 A2993 RMK A01 T03200000  RH  013%=      5-min Rain = 0
KHO1 242056Z 24008KT 32/00 A2993 RMK A01 T03190002  RH  013%=      5-min Rain = 0
KHO1 242057Z 22008KT 32/00 A2993 RMK A01 T03190001  RH  013%=      5-min Rain = 0
KHO1 242058Z 20009KT 32/00 A2993 RMK A01 T03190001  RH  013%=      5-min Rain = 0
KHO1 242059Z 20008KT 32/00 A2993 RMK A01 T031900-0  RH  013%=      5-min Rain = 0
KHO1 242100Z 20005KT 32/00 A2993 RMK A01 T03160001  RH  013%=      5-min Rain = 0
KHO1 242101Z 18005KT 32/00 A2993 RMK A01 T03160001  RH  013%=      5-min Rain = 0
KHO1 242102Z 18003KT 32/M00 A2993 RMK A01 T03151001  RH  013%=      5-min Rain = 0
KHO1 242103Z 27001KT 32/M00 A2993 RMK A01 T03151002  RH  013%=      5-min Rain = 0
KHO1 242104Z 32002KT 32/00 A2993 RMK A01 T03170001  RH  013%=      5-min Rain = 0
KHO1 242105Z 32002KT 32/M01 A2993 RMK A01 T03181006  RH  012%=      5-min Rain = 0
KHO1 242106Z 17004KT 32/M00 A2993 RMK A01 T03191002  RH  013%=      5-min Rain = 0
KHO1 242107Z 17003KT 32/M01 A2993 RMK A01 T03181009  RH  012%=      5-min Rain = 0
KHO1 242108Z 21002KT 32/M01 A2993 RMK A01 T03171006  RH  012%=      5-min Rain = 0
KHO1 242109Z 21005KT 32/M00 A2993 RMK A01 T03191002  RH  013%=      5-min Rain = 0
KHO1 242110Z 21007KT 32/M01 A2993 RMK A01 T03221007  RH  012%=      5-min Rain = 0
KHO1 242111Z 22010G16KT 32/M02 A2993 RMK A01 T03231015  RH  011%=      5-min Rain = 0
KHO1 242112Z 22012KT 32/M02 A2993 RMK A01 T03221018  RH  011%=      5-min Rain = 0
KHO1 242113Z 23011KT 32/M01 A2993 RMK A01 T03211014  RH  012%=      5-min Rain = 0
KHO1 242114Z 24009KT 32/M01 A2993 RMK A01 T03211014  RH  012%=      5-min Rain = 0
KHO1 242115Z 25010KT 32/M01 A2992 RMK A01 T03221013  RH  012%=      5-min Rain = 0
KHO1 242116Z 26009KT 33/M01 A2992 RMK A01 T03251014  RH  011%=      5-min Rain = 0
KHO1 242117Z 24007KT 32/M02 A2992 RMK A01 T03231017  RH  011%=      5-min Rain = 0
KHO1 242118Z 21010KT 32/M01 A2992 RMK A01 T03241009  RH  012%=      5-min Rain = 0
KHO1 242119Z 20010KT 32/M00 A2992 RMK A01 T03231004  RH  012%=      5-min Rain = 0
KHO1 242120Z 20009KT 32/M00 A2992 RMK A01 T03231003  RH  012%=      5-min Rain = 0
KHO1 242121Z 20007KT 32/M00 A2992 RMK A01 T03231002  RH  013%=      5-min Rain = 0
KHO1 242122Z 21009KT 32/M00 A2992 RMK A01 T03241001  RH  012%=      5-min Rain = 0
KHO1 242123Z 19007KT 32/M00 A2992 RMK A01 T03231003  RH  012%=      5-min Rain = 0
KHO1 242124Z 19006KT 32/M01 A2993 RMK A01 T03221005  RH  012%=      5-min Rain = 0
KHO1 242125Z 23005KT 32/M02 A2993 RMK A01 T03201017  RH  011%=      5-min Rain = 0
KHO1 242126Z 26001KT 32/M02 A2992 RMK A01 T03191016  RH  012%=      5-min Rain = 0
KHO1 242127Z 21004KT 32/M01 A2992 RMK A01 T03211010  RH  012%=      5-min Rain = 0
KHO1 242128Z 19004KT 32/M01 A2992 RMK A01 T03201013  RH  012%=      5-min Rain = 0
KHO1 242129Z 18007KT 32/M01 A2992 RMK A01 T03191011  RH  012%=      5-min Rain = 0
KHO1 242130Z 18006KT 32/M01 A2992 RMK A01 T03221013  RH  012%=      5-min Rain = 0
KHO1 242131Z 16001KT 32/M02 A2992 RMK A01 T03201019  RH  011%=      5-min Rain = 0
KHO1 242132Z 05002KT 32/M01 A2992 RMK A01 T03231012  RH  012%=      5-min Rain = 0
KHO1 242133Z 02004KT 32/M02 A2991 RMK A01 T03241020  RH  011%=      5-min Rain = 0
KHO1 242134Z 01003KT 32/M02 A2991 RMK A01 T03221020  RH  011%=      5-min Rain = 0
KHO1 242135Z 33001KT 32/M02 A2991 RMK A01 T03221020  RH  011%=      5-min Rain = 0
KHO1 242136Z 22001KT 32/M02 A2992 RMK A01 T03191024  RH  011%=      5-min Rain = 0
KHO1 242137Z 22002KT 32/M02 A2992 RMK A01 T03191021  RH  011%=      5-min Rain = 0
KHO1 242138Z 20004KT 32/M02 A2992 RMK A01 T03201021  RH  011%=      5-min Rain = 0
KHO1 242139Z 21008KT 32/M02 A2991 RMK A01 T03221018  RH  011%=      5-min Rain = 0
KHO1 242140Z 21008KT 32/M02 A2991 RMK A01 T03221021  RH  011%=      5-min Rain = 0
KHO1 242141Z 23008KT 32/M02 A2991 RMK A01 T03231018  RH  011%=      5-min Rain = 0
KHO1 242142Z 24009KT 33/M02 A2991 RMK A01 T03261018  RH  011%=      5-min Rain = 0
KHO1 242143Z 23009KT 33/M02 A2991 RMK A01 T03251017  RH  011%=      5-min Rain = 0
KHO1 242144Z 23009KT 32/M02 A2991 RMK A01 T03221016  RH  011%=      5-min Rain = 0
KHO1 242145Z 23011KT 32/M01 A2991 RMK A01 T03221011  RH  012%=      5-min Rain = 0
KHO1 242146Z 23010KT 32/M01 A2991 RMK A01 T03211006  RH  012%=      5-min Rain = 0
KHO1 242147Z 22008KT 32/M01 A2991 RMK A01 T03191007  RH  012%=      5-min Rain = 0
KHO1 242148Z 21006KT 32/M00 A2991 RMK A01 T03161003  RH  013%=      5-min Rain = 0
KHO1 242149Z 19003KT 32/M00 A2991 RMK A01 T03151004  RH  013%=      5-min Rain = 0
KHO1 242150Z 24006KT 32/M00 A2991 RMK A01 T03171004  RH  013%=      5-min Rain = 0
KHO1 242151Z 25005KT 32/M01 A2991 RMK A01 T03191005  RH  013%=      5-min Rain = 0
KHO1 242152Z 24008KT 32/M00 A2991 RMK A01 T03221004  RH  012%=      5-min Rain = 0
KHO1 242153Z 25009KT 32/M01 A2991 RMK A01 T03231007  RH  012%=      5-min Rain = 0
KHO1 242154Z 23008KT 32/M01 A2991 RMK A01 T03221008  RH  012%=      5-min Rain = 0
KHO1 242155Z 25003KT 32/M01 A2991 RMK A01 T03201010  RH  012%=      5-min Rain = 0
KHO1 242156Z 21003KT 32/M01 A2991 RMK A01 T03211011  RH  012%=      5-min Rain = 0
KHO1 242157Z 19003KT 32/M02 A299 RMK A01 T03211015  RH  011%=      5-min Rain = 0
KHO1 242158Z 17004KT 32/M01 A299 RMK A01 T03211014  RH  012%=      5-min Rain = 0
KHO1 242159Z 17004KT 32/M02 A299 RMK A01 T03201016  RH  011%=      5-min Rain = 0
KHO1 242200Z 18002KT 32/M02 A299 RMK A01 T03191017  RH  011%=      5-min Rain = 0
KHO1 242201Z 18003KT 32/M01 A299 RMK A01 T03201010  RH  012%=      5-min Rain = 0
KHO1 242202Z 20005KT 32/M01 A299 RMK A01 T03221011  RH  012%=      5-min Rain = 0
KHO1 242203Z 19004KT 32/M01 A299 RMK A01 T03231007  RH  012%=      5-min Rain = 0
KHO1 242204Z 19002KT 32/M01 A299 RMK A01 T03231008  RH  012%=      5-min Rain = 0
KHO1 242205Z 23002G8KT 33/M01 A299 RMK A01 T03251007  RH  012%=      5-min Rain = 0
KHO1 242206Z 24005KT 33/M02 A299 RMK A01 T03261022  RH  011%=      5-min Rain = 0
KHO1 242207Z 26005KT 33/M02 A299 RMK A01 T03251021  RH  011%=      5-min Rain = 0
KHO1 242208Z 21010KT 33/M01 A299 RMK A01 T03271013  RH  011%=      5-min Rain = 0
KHO1 242209Z 19007KT 33/M02 A299 RMK A01 T03261016  RH  011%=      5-min Rain = 0
KHO1 242210Z 23008KT 33/M04 A299 RMK A01 T03261037  RH  009%=      5-min Rain = 0
KHO1 242211Z 23010KT 33/M03 A299 RMK A01 T03261033  RH  010%=      5-min Rain = 0
KHO1 242212Z 23014KT 33/M03 A299 RMK A01 T03271034  RH  010%=      5-min Rain = 0
KHO1 242213Z 23013KT 33/M04 A299 RMK A01 T03281035  RH  009%=      5-min Rain = 0
KHO1 242214Z 23013KT 33/M03 A299 RMK A01 T03291034  RH  010%=      5-min Rain = 0
KHO1 242215Z 23011KT 33/M03 A299 RMK A01 T03281030  RH  010%=      5-min Rain = 0
KHO1 242216Z 24009KT 33/M03 A299 RMK A01 T03271028  RH  010%=      5-min Rain = 0
KHO1 242217Z 24008KT 33/M03 A2989 RMK A01 T03271028  RH  010%=      5-min Rain = 0
KHO1 242218Z 23012KT 33/M02 A299 RMK A01 T03281023  RH  010%=      5-min Rain = 0
KHO1 242219Z 21012KT 33/M02 A299 RMK A01 T03271021  RH  011%=      5-min Rain = 0
KHO1 242220Z 21014KT 32/M02 A2989 RMK A01 T03241020  RH  011%=      5-min Rain = 0
KHO1 242221Z 20012KT 32/M01 A2989 RMK A01 T03231014  RH  011%=      5-min Rain = 0
KHO1 242222Z 21012KT 33/M02 A2989 RMK A01 T03251015  RH  011%=      5-min Rain = 0
KHO1 242223Z 22010KT 32/M02 A2989 RMK A01 T03241017  RH  011%=      5-min Rain = 0
KHO1 242224Z 22014KT 33/M02 A2989 RMK A01 T03281016  RH  011%=      5-min Rain = 0
KHO1 242225Z 21017KT 33/M03 A2989 RMK A01 T03281026  RH  010%=      5-min Rain = 0
KHO1 242226Z 21014KT 33/M03 A2989 RMK A01 T03251030  RH  010%=      5-min Rain = 0
KHO1 242227Z 20011KT 32/M03 A2989 RMK A01 T03241028  RH  010%=      5-min Rain = 0
KHO1 242228Z 23012KT 33/M03 A2989 RMK A01 T03271032  RH  010%=      5-min Rain = 0
KHO1 242229Z 23009KT 33/M04 A2989 RMK A01 T03261037  RH  009%=      5-min Rain = 0
KHO1 242230Z 23011KT 33/M04 A2989 RMK A01 T03251035  RH  010%=      5-min Rain = 0
KHO1 242231Z 22008G13KT 33/M03 A2989 RMK A01 T03251029  RH  010%=      5-min Rain = 0
KHO1 242232Z 22008KT 32/M03 A2989 RMK A01 T03231030  RH  010%=      5-min Rain = 0
KHO1 242233Z 20009KT 32/M02 A2989 RMK A01 T03241023  RH  011%=      5-min Rain = 0
KHO1 242234Z 19008KT 33/M03 A2989 RMK A01 T03251026  RH  010%=      5-min Rain = 0
KHO1 242235Z 21004KT 32/M03 A2989 RMK A01 T03241025  RH  010%=      5-min Rain = 0
KHO1 242236Z 17007KT 33/M02 A2989 RMK A01 T03251019  RH  011%=      5-min Rain = 0
KHO1 242237Z 17007KT 32/M02 A2989 RMK A01 T03241020  RH  011%=      5-min Rain = 0
KHO1 242238Z 16007KT 32/M02 A2989 RMK A01 T03241017  RH  011%=      5-min Rain = 0
KHO1 242239Z 17006KT 33/M02 A2989 RMK A01 T03261018  RH  011%=      5-min Rain = 0
KHO1 242240Z 19008KT 33/M02 A2989 RMK A01 T03301016  RH  011%=      5-min Rain = 0
KHO1 242241Z 19008KT 33/M02 A2989 RMK A01 T03301023  RH  010%=      5-min Rain = 0
KHO1 242242Z 20010KT 33/M03 A2989 RMK A01 T03271028  RH  010%=      5-min Rain = 0
KHO1 242243Z 21011KT 33/M03 A2989 RMK A01 T03261032  RH  010%=      5-min Rain = 0
KHO1 242244Z 23007KT 33/M03 A2989 RMK A01 T03251031  RH  010%=      5-min Rain = 0
KHO1 242245Z 23010KT 33/M03 A2989 RMK A01 T03251030  RH  010%=      5-min Rain = 0
KHO1 242246Z 23009G15KT 33/M03 A2989 RMK A01 T03271025  RH  010%=      5-min Rain = 0
KHO1 242247Z 21015KT 33/M02 A2989 RMK A01 T03281021  RH  011%=      5-min Rain = 0
KHO1 242248Z 18011KT 33/M02 A2989 RMK A01 T03261019  RH  011%=      5-min Rain = 0
KHO1 242249Z 18010KT 33/M02 A2989 RMK A01 T03271016  RH  011%=      5-min Rain = 0
KHO1 242250Z 19013G18KT 33/M02 A2989 RMK A01 T03291020  RH  011%=      5-min Rain = 0
KHO1 242251Z 18012KT 33/M03 A2989 RMK A01 T03271026  RH  010%=      5-min Rain = 0
KHO1 242252Z 19012KT 33/M02 A2989 RMK A01 T03271023  RH  010%=      5-min Rain = 0
KHO1 242253Z 21012KT 33/M02 A2989 RMK A01 T03281020  RH  011%=      5-min Rain = 0
KHO1 242254Z 21012KT 33/M02 A2989 RMK A01 T03261022  RH  011%=      5-min Rain = 0
KHO1 242255Z 20012KT 32/M02 A2989 RMK A01 T03241019  RH  011%=      5-min Rain = 0
KHO1 242256Z 20009KT 33/M02 A2989 RMK A01 T03261015  RH  011%=      5-min Rain = 0
KHO1 242257Z 21008KT 33/M02 A2989 RMK A01 T03271015  RH  011%=      5-min Rain = 0
KHO1 242258Z 18010KT 33/M02 A2989 RMK A01 T03301016  RH  011%=      5-min Rain = 0
KHO1 242259Z 18013KT 33/M03 A2989 RMK A01 T03271026  RH  010%=      5-min Rain = 0
KHO1 242300Z 19011KT 33/M03 A2989 RMK A01 T03261026  RH  010%=      5-min Rain = 0
KHO1 242301Z 19010KT 33/M02 A2989 RMK A01 T03281022  RH  010%=      5-min Rain = 0
KHO1 242302Z 19009KT 33/M03 A2989 RMK A01 T03271028  RH  010%=      5-min Rain = 0
KHO1 242303Z 19009KT 32/M03 A2988 RMK A01 T03241027  RH  010%=      5-min Rain = 0
KHO1 242304Z 19012KT 32/M03 A2988 RMK A01 T03241028  RH  010%=      5-min Rain = 0
KHO1 242305Z 17011KT 33/M03 A2988 RMK A01 T03261027  RH  010%=      5-min Rain = 0
KHO1 242306Z 17012KT 33/M03 A2988 RMK A01 T03261031  RH  010%=      5-min Rain = 0
KHO1 242307Z 17012KT 33/M03 A2988 RMK A01 T03251031  RH  010%=      5-min Rain = 0
KHO1 242308Z 18014KT 33/M03 A2988 RMK A01 T03261030  RH  010%=      5-min Rain = 0
KHO1 242309Z 19011KT 33/M03 A2988 RMK A01 T03271028  RH  010%=      5-min Rain = 0
KHO1 242310Z 19013KT 33/M03 A2988 RMK A01 T03301031  RH  010%=      5-min Rain = 0
KHO1 242311Z 20011KT 33/M04 A2988 RMK A01 T03271042  RH  009%=      5-min Rain = 0
KHO1 242312Z 19011KT 33/M04 A2988 RMK A01 T03281041  RH  009%=      5-min Rain = 0
KHO1 242313Z 21015KT 33/M05 A2988 RMK A01 T03271050  RH  009%=      5-min Rain = 0
KHO1 242314Z 19014KT 33/M05 A2988 RMK A01 T03271049  RH  009%=      5-min Rain = 0
KHO1 242315Z 19014KT 33/M05 A2988 RMK A01 T03251051  RH  009%=      5-min Rain = 0
KHO1 242316Z 21011KT 33/M05 A2988 RMK A01 T03261048  RH  009%=      5-min Rain = 0
KHO1 242317Z 21015KT 33/M04 A2988 RMK A01 T03261044  RH  009%=      5-min Rain = 0
KHO1 242318Z 20013KT 33/M04 A2988 RMK A01 T03261042  RH  009%=      5-min Rain = 0
KHO1 242319Z 18014KT 33/M05 A2988 RMK A01 T03261046  RH  009%=      5-min Rain = 0
KHO1 242320Z 18011KT 33/M04 A2988 RMK A01 T03251044  RH  009%=      5-min Rain = 0
KHO1 242321Z 17015KT 33/M05 A2988 RMK A01 T03271045  RH  009%=      5-min Rain = 0
KHO1 242322Z 18012G18KT 33/M04 A2988 RMK A01 T03261043  RH  009%=      5-min Rain = 0
KHO1 242323Z 18013KT 33/M04 A2989 RMK A01 T03271042  RH  009%=      5-min Rain = 0
KHO1 242324Z 18014KT 33/M05 A2989 RMK A01 T03261046  RH  009%=      5-min Rain = 0
KHO1 242325Z 18012KT 32/M05 A2988 RMK A01 T03241048  RH  009%=      5-min Rain = 0
KHO1 242326Z 20012KT 32/M05 A2988 RMK A01 T03241047  RH  009%=      5-min Rain = 0
KHO1 242327Z 19011KT 32/M05 A2988 RMK A01 T03241046  RH  009%=      5-min Rain = 0
KHO1 242328Z 19010KT 32/M05 A2988 RMK A01 T03241048  RH  009%=      5-min Rain = 0
KHO1 242329Z 17013KT 32/M05 A2988 RMK A01 T03231049  RH  009%=      5-min Rain = 0
KHO1 242330Z 17012KT 32/M05 A2988 RMK A01 T03231046  RH  009%=      5-min Rain = 0
KHO1 242331Z 17010KT 32/M05 A2988 RMK A01 T03231046  RH  009%=      5-min Rain = 0
KHO1 242332Z 17010KT 32/M05 A2988 RMK A01 T03221049  RH  009%=      5-min Rain = 0
KHO1 242333Z 20010KT 32/M04 A2988 RMK A01 T03231044  RH  009%=      5-min Rain = 0
KHO1 242334Z 21012KT 32/M04 A2988 RMK A01 T03241044  RH  009%=      5-min Rain = 0
KHO1 242335Z 21009KT 32/M05 A2988 RMK A01 T03231045  RH  009%=      5-min Rain = 0
KHO1 242336Z 19011KT 32/M04 A2988 RMK A01 T03231041  RH  009%=      5-min Rain = 0
KHO1 242337Z 19008KT 32/M04 A2988 RMK A01 T03241043  RH  009%=      5-min Rain = 0
KHO1 242338Z 18006KT 32/M04 A2988 RMK A01 T03241043  RH  009%=      5-min Rain = 0
KHO1 242339Z 18008KT 32/M05 A2988 RMK A01 T03241046  RH  009%=      5-min Rain = 0
KHO1 242340Z 20012G18KT 32/M04 A2988 RMK A01 T03241044  RH  009%=      5-min Rain = 0
KHO1 242341Z 22014KT 32/M05 A2988 RMK A01 T03241047  RH  009%=      5-min Rain = 0
KHO1 242342Z 23015KT 32/M05 A2988 RMK A01 T03241051  RH  009%=      5-min Rain = 0
KHO1 242343Z 23013KT 32/M05 A2988 RMK A01 T03231052  RH  009%=      5-min Rain = 0
KHO1 242344Z 24013KT 32/M05 A2988 RMK A01 T03221051  RH  009%=      5-min Rain = 0
KHO1 242345Z 23013KT 32/M05 A2988 RMK A01 T03231049  RH  009%=      5-min Rain = 0
KHO1 242346Z 23012KT 32/M05 A2988 RMK A01 T03231049  RH  009%=      5-min Rain = 0
KHO1 242347Z 23013KT 32/M05 A2988 RMK A01 T03231045  RH  009%=      5-min Rain = 0
KHO1 242348Z 21012KT 32/M04 A2988 RMK A01 T03231042  RH  009%=      5-min Rain = 0
KHO1 242349Z 20011KT 32/M04 A2988 RMK A01 T03241039  RH  009%=      5-min Rain = 0
KHO1 242350Z 20008KT 32/M04 A2988 RMK A01 T03231037  RH  010%=      5-min Rain = 0
KHO1 242351Z 21009KT 32/M04 A2988 RMK A01 T03231039  RH  009%=      5-min Rain = 0
KHO1 242352Z 22010KT 32/M04 A2988 RMK A01 T03221042  RH  009%=      5-min Rain = 0
KHO1 242353Z 22007KT 32/M04 A2988 RMK A01 T03241039  RH  009%=      5-min Rain = 0
KHO1 242354Z 22009KT 33/M04 A2988 RMK A01 T03261040  RH  009%=      5-min Rain = 0
KHO1 242355Z 23010KT 32/M05 A2988 RMK A01 T03241045  RH  009%=      5-min Rain = 0
KHO1 242356Z 21008KT 32/M04 A2988 RMK A01 T03241042  RH  009%=      5-min Rain = 0
KHO1 242357Z 20009KT 32/M04 A2988 RMK A01 T03231038  RH  010%=      5-min Rain = 0
KHO1 242358Z 19008KT 32/M04 A2988 RMK A01 T03221038  RH  010%=      5-min Rain = 0
KHO1 242359Z 20008KT 32/M04 A2988 RMK A01 T03201040  RH  010%=      5-min Rain = 0
KHO1 250000Z 21008KT 32/M04 A2988 RMK A01 T03191042  RH  009%=      5-min Rain = 0
KHO1 250001Z 20006KT 32/M04 A2988 RMK A01 T03181043  RH  009%=      5-min Rain = 0
KHO1 250002Z 19008KT 32/M04 A2988 RMK A01 T03191036  RH  010%=      5-min Rain = 0
KHO1 250003Z 18010KT 32/M03 A2988 RMK A01 T03201034  RH  010%=      5-min Rain = 0
KHO1 250004Z 18010KT 32/M03 A2988 RMK A01 T03191034  RH  010%=      5-min Rain = 0
KHO1 250005Z 17010KT 32/M04 A2988 RMK A01 T03191035  RH  010%=      5-min Rain = 0
KHO1 250006Z 17008KT 32/M04 A2988 RMK A01 T03191035  RH  010%=      5-min Rain = 0
KHO1 250007Z 17010KT 32/M04 A2988 RMK A01 T03191035  RH  010%=      5-min Rain = 0
KHO1 250008Z 18010KT 32/M03 A2988 RMK A01 T03191034  RH  010%=      5-min Rain = 0
KHO1 250009Z 20011KT 32/M03 A2988 RMK A01 T03201033  RH  010%=      5-min Rain = 0
KHO1 250010Z 18012KT 32/M03 A2988 RMK A01 T03191033  RH  010%=      5-min Rain = 0
KHO1 250011Z 19011KT 32/M03 A2988 RMK A01 T03181033  RH  010%=      5-min Rain = 0
KHO1 250012Z 17010KT 32/M03 A2988 RMK A01 T03181032  RH  010%=      5-min Rain = 0
KHO1 250013Z 18010KT 32/M03 A2988 RMK A01 T03181032  RH  010%=      5-min Rain = 0
KHO1 250014Z 18010KT 32/M03 A2988 RMK A01 T03181032  RH  010%=      5-min Rain = 0
KHO1 250015Z 18008KT 32/M03 A2988 RMK A01 T03181029  RH  011%=      5-min Rain = 0
KHO1 250016Z 16010KT 32/M03 A2988 RMK A01 T03181027  RH  011%=      5-min Rain = 0
KHO1 250017Z 18011KT 32/M03 A2988 RMK A01 T03181025  RH  011%=      5-min Rain = 0
KHO1 250018Z 19014KT 32/M03 A2988 RMK A01 T03181031  RH  010%=      5-min Rain = 0
KHO1 250019Z 19015KT 32/M03 A2988 RMK A01 T03181032  RH  010%=      5-min Rain = 0
KHO1 250020Z 20015KT 32/M03 A2988 RMK A01 T03181034  RH  010%=      5-min Rain = 0
KHO1 250021Z 20014KT 32/M04 A2988 RMK A01 T03171036  RH  010%=      5-min Rain = 0
KHO1 250022Z 20013KT 32/M03 A2988 RMK A01 T03171034  RH  010%=      5-min Rain = 0
KHO1 250023Z 20014KT 32/M04 A2988 RMK A01 T03171035  RH  010%=      5-min Rain = 0
KHO1 250024Z 20015KT 32/M04 A2988 RMK A01 T03161037  RH  010%=      5-min Rain = 0
KHO1 250025Z 20013KT 32/M03 A2988 RMK A01 T03161034  RH  010%=      5-min Rain = 0
KHO1 250026Z 21011KT 32/M03 A2988 RMK A01 T03161031  RH  010%=      5-min Rain = 0
KHO1 250027Z 20012KT 32/M03 A2988 RMK A01 T03161031  RH  010%=      5-min Rain = 0
KHO1 250028Z 20010G15KT 32/M03 A2988 RMK A01 T03161030  RH  011%=      5-min Rain = 0
KHO1 250029Z 20010G15KT 32/M03 A2988 RMK A01 T03161028  RH  011%=      5-min Rain = 0
KHO1 250030Z 19011KT 32/M03 A2988 RMK A01 T03161029  RH  011%=      5-min Rain = 0
KHO1 250031Z 18011KT 32/M03 A2988 RMK A01 T03161028  RH  011%=      5-min Rain = 0
KHO1 250032Z 16016G21KT 32/M00 A2988 RMK A01 T03161004  RH  013%=      5-min Rain = 0
KHO1 250033Z 15019KT 31/11 A2988 RMK A01 T03110108  RH  029%=      5-min Rain = 0
KHO1 250034Z 15019KT 30/15 A2988 RMK A01 T03020147  RH  039%=      5-min Rain = 0
KHO1 250035Z 14015KT 30/16 A2988 RMK A01 T02960157  RH  043%=      5-min Rain = 0
KHO1 250036Z 14023G30KT 29/16 A2988 RMK A01 T02920164  RH  046%=      5-min Rain = 0
KHO1 250037Z 15022G29KT 29/17 A2988 RMK A01 T02850166  RH  048%=      5-min Rain = 0
KHO1 250038Z 14028G33KT 28/17 A2988 RMK A01 T02810167  RH  050%=      5-min Rain = 0
KHO1 250039Z 14025KT 28/17 A2988 RMK A01 T02780168  RH  051%=      5-min Rain = 0
KHO1 250040Z 14024KT 28/17 A2989 RMK A01 T02780169  RH  051%=      5-min Rain = 0
KHO1 250041Z 14022G27KT 28/17 A2989 RMK A01 T02780169  RH  052%=      5-min Rain = 0
KHO1 250042Z 15022G28KT 28/17 A2988 RMK A01 T02790170  RH  052%=      5-min Rain = 0
KHO1 250043Z 15024G29KT 28/17 A2989 RMK A01 T02780171  RH  052%=      5-min Rain = 0
KHO1 250044Z 15023G30KT 28/17 A2989 RMK A01 T02770170  RH  052%=      5-min Rain = 0
KHO1 250045Z 15022G27KT 28/17 A2989 RMK A01 T02760170  RH  052%=      5-min Rain = 0
KHO1 250046Z 15021G26KT 28/17 A2989 RMK A01 T02760170  RH  053%=      5-min Rain = 0
KHO1 250047Z 14020KT 28/17 A2989 RMK A01 T02760170  RH  052%=      5-min Rain = 0
KHO1 250048Z 15020KT 28/17 A2989 RMK A01 T02760170  RH  052%=      5-min Rain = 0
KHO1 250049Z 15025KT 28/17 A2989 RMK A01 T02750168  RH  052%=      5-min Rain = 0
KHO1 250050Z 15024KT 27/17 A2989 RMK A01 T02730166  RH  052%=      5-min Rain = 0
KHO1 250051Z 15024KT 27/17 A2989 RMK A01 T02720166  RH  052%=      5-min Rain = 0
KHO1 250052Z 16023KT 27/17 A2989 RMK A01 T02720167  RH  053%=      5-min Rain = 0
KHO1 250053Z 16023G29KT 27/17 A2989 RMK A01 T02700165  RH  053%=      5-min Rain = 0
KHO1 250054Z 15024G31KT 27/17 A2989 RMK A01 T02700166  RH  053%=      5-min Rain = 0
KHO1 250055Z 15022G27KT 27/17 A2989 RMK A01 T02690166  RH  053%=      5-min Rain = 0
KHO1 250056Z 15023G28KT 27/17 A2989 RMK A01 T02690167  RH  054%=      5-min Rain = 0
KHO1 250057Z 16025KT 27/17 A2989 RMK A01 T02680167  RH  054%=      5-min Rain = 0
KHO1 250058Z 16022G29KT 27/17 A2989 RMK A01 T02680166  RH  054%=      5-min Rain = 0
KHO1 250059Z 15018G23KT 27/17 A2989 RMK A01 T02670167  RH  054%=      5-min Rain = 0
KHO1 250100Z 15019G25KT 27/17 A2989 RMK A01 T02670167  RH  054%=      5-min Rain = 0
KHO1 250101Z 16019KT 27/17 A2989 RMK A01 T02660167  RH  054%=      5-min Rain = 0
KHO1 250102Z 15020KT 27/17 A2989 RMK A01 T02660168  RH  055%=      5-min Rain = 0
KHO1 250103Z 15020KT 27/17 A2989 RMK A01 T02660168  RH  055%=      5-min Rain = 0
KHO1 250104Z 15017G22KT 27/17 A2989 RMK A01 T02660169  RH  055%=      5-min Rain = 0
KHO1 250105Z 15019G25KT 27/17 A2989 RMK A01 T02670169  RH  055%=      5-min Rain = 0
KHO1 250106Z 16017KT 27/17 A2989 RMK A01 T02670168  RH  055%=      5-min Rain = 0
KHO1 250107Z 15021G26KT 27/17 A2989 RMK A01 T02670168  RH  055%=      5-min Rain = 0
KHO1 250108Z 16021G27KT 27/17 A299 RMK A01 T02660169  RH  055%=      5-min Rain = 0
KHO1 250109Z 16017KT 27/17 A2989 RMK A01 T02660169  RH  055%=      5-min Rain = 0
KHO1 250110Z 16017KT 27/17 A2989 RMK A01 T02660169  RH  055%=      5-min Rain = 0
KHO1 250111Z 16014KT 27/17 A299 RMK A01 T02670169  RH  055%=      5-min Rain = 0
KHO1 250112Z 16014G19KT 27/17 A299 RMK A01 T02670168  RH  055%=      5-min Rain = 0
KHO1 250113Z 16015KT 27/17 A299 RMK A01 T02660169  RH  055%=      5-min Rain = 0
KHO1 250114Z 16017G24KT 27/17 A299 RMK A01 T02660171  RH  056%=      5-min Rain = 0
KHO1 250115Z 16018KT 26/17 A299 RMK A01 T02640170  RH  056%=      5-min Rain = 0
KHO1 250116Z 16021G26KT 26/17 A299 RMK A01 T02630170  RH  056%=      5-min Rain = 0
KHO1 250117Z 16020G28KT 26/17 A299 RMK A01 T02610169  RH  057%=      5-min Rain = 0
KHO1 250118Z 16016G21KT 26/17 A299 RMK A01 T02610169  RH  057%=      5-min Rain = 0
KHO1 250119Z 16020G25KT 26/17 A299 RMK A01 T02600167  RH  057%=      5-min Rain = 0
KHO1 250120Z 16023G29KT 26/17 A299 RMK A01 T02590166  RH  056%=      5-min Rain = 0
KHO1 250121Z 16021KT 26/17 A299 RMK A01 T02590166  RH  056%=      5-min Rain = 0
KHO1 250122Z 16024KT 26/17 A299 RMK A01 T02580166  RH  057%=      5-min Rain = 0
KHO1 250123Z 17020G27KT 26/17 A299 RMK A01 T02580167  RH  057%=      5-min Rain = 0
KHO1 250124Z 17022KT 26/17 A299 RMK A01 T02580167  RH  057%=      5-min Rain = 0
KHO1 250125Z 17024KT 26/17 A2991 RMK A01 T02570167  RH  058%=      5-min Rain = 0
KHO1 250126Z 16021G27KT 26/17 A299 RMK A01 T02560168  RH  058%=      5-min Rain = 0
KHO1 250127Z 17022KT 26/17 A299 RMK A01 T02560168  RH  058%=      5-min Rain = 0
KHO1 250128Z 16024KT 26/17 A2991 RMK A01 T02560169  RH  059%=      5-min Rain = 0
KHO1 250129Z 16018G23KT 26/17 A2991 RMK A01 T02550169  RH  059%=      5-min Rain = 0
KHO1 250130Z 16021G26KT 26/17 A2991 RMK A01 T02550170  RH  059%=      5-min Rain = 0
KHO1 250131Z 16020KT 26/17 A2991 RMK A01 T02550170  RH  060%=      5-min Rain = 0
KHO1 250132Z 16017KT 25/17 A2991 RMK A01 T02540171  RH  060%=      5-min Rain = 0
KHO1 250133Z 17021G27KT 25/17 A2991 RMK A01 T02540171  RH  060%=      5-min Rain = 0
KHO1 250134Z 17018G23KT 25/17 A2991 RMK A01 T02530171  RH  060%=      5-min Rain = 0
KHO1 250135Z 16018G25KT 25/17 A2991 RMK A01 T02530171  RH  060%=      5-min Rain = 0
KHO1 250136Z 16021KT 25/17 A2991 RMK A01 T02530171  RH  060%=      5-min Rain = 0
KHO1 250137Z 16020KT 25/17 A2991 RMK A01 T02520171  RH  060%=      5-min Rain = 0
KHO1 250138Z 16017KT 25/17 A2991 RMK A01 T02520171  RH  060%=      5-min Rain = 0
KHO1 250139Z 16015KT 25/17 A2991 RMK A01 T02520170  RH  061%=      5-min Rain = 0
KHO1 250140Z 16016KT 25/17 A2991 RMK A01 T02520171  RH  061%=      5-min Rain = 0
KHO1 250141Z 17021KT 25/17 A2991 RMK A01 T02510171  RH  061%=      5-min Rain = 0
KHO1 250142Z 16020KT 25/17 A2991 RMK A01 T02510170  RH  061%=      5-min Rain = 0
KHO1 250143Z 16022KT 25/17 A2991 RMK A01 T02510167  RH  060%=      5-min Rain = 0
KHO1 250144Z 17022KT 25/16 A2992 RMK A01 T02500163  RH  058%=      5-min Rain = 0
KHO1 250145Z 17023KT 25/16 A2992 RMK A01 T02500163  RH  058%=      5-min Rain = 0
KHO1 250146Z 17019G24KT 25/16 A2992 RMK A01 T02500163  RH  059%=      5-min Rain = 0
KHO1 250147Z 16021KT 25/16 A2992 RMK A01 T02500163  RH  059%=      5-min Rain = 0
KHO1 250148Z 17020KT 25/16 A2992 RMK A01 T02490164  RH  059%=      5-min Rain = 0
KHO1 250149Z 17021G26KT 25/16 A2992 RMK A01 T02490164  RH  059%=      5-min Rain = 0
KHO1 250150Z 17021KT 25/17 A2992 RMK A01 T02490165  RH  060%=      5-min Rain = 0
KHO1 250151Z 16021KT 25/17 A2992 RMK A01 T02490165  RH  060%=      5-min Rain = 0
KHO1 250152Z 17019KT 25/17 A2992 RMK A01 T02480166  RH  060%=      5-min Rain = 0
KHO1 250153Z 17016KT 25/17 A2992 RMK A01 T02480166  RH  060%=      5-min Rain = 0
KHO1 250154Z 17018KT 25/17 A2993 RMK A01 T02480167  RH  061%=      5-min Rain = 0
KHO1 250155Z 16014KT 25/17 A2992 RMK A01 T02470167  RH  061%=      5-min Rain = 0
KHO1 250156Z 16015KT 25/17 A2993 RMK A01 T02470168  RH  061%=      5-min Rain = 0
KHO1 250157Z 16019KT 25/17 A2993 RMK A01 T02470169  RH  062%=      5-min Rain = 0
KHO1 250158Z 17021KT 25/17 A2993 RMK A01 T02460170  RH  063%=      5-min Rain = 0
KHO1 250159Z 16020KT 25/17 A2993 RMK A01 T02450171  RH  063%=      5-min Rain = 0
KHO1 250200Z 17021KT 25/17 A2993 RMK A01 T02450171  RH  063%=      5-min Rain = 0
KHO1 250201Z 16018KT 24/17 A2993 RMK A01 T02440171  RH  064%=      5-min Rain = 0
KHO1 250202Z 17017G22KT 24/17 A2993 RMK A01 T02440171  RH  064%=      5-min Rain = 0
KHO1 250203Z 17017G23KT 24/17 A2993 RMK A01 T02440171  RH  064%=      5-min Rain = 0
KHO1 250204Z 16016KT 24/17 A2993 RMK A01 T02440171  RH  064%=      5-min Rain = 0
KHO1 250205Z 16015KT 24/17 A2993 RMK A01 T02430171  RH  064%=      5-min Rain = 0
KHO1 250206Z 17017KT 24/17 A2993 RMK A01 T02430171  RH  064%=      5-min Rain = 0
KHO1 250207Z 17014KT 24/17 A2993 RMK A01 T02420168  RH  063%=      5-min Rain = 0
KHO1 250208Z 17017G25KT 24/17 A2993 RMK A01 T02420168  RH  063%=      5-min Rain = 0
KHO1 250209Z 16019KT 24/17 A2993 RMK A01 T02410166  RH  063%=      5-min Rain = 0
KHO1 250210Z 16022KT 24/17 A2993 RMK A01 T02410165  RH  062%=      5-min Rain = 0
KHO1 250211Z 16018KT 24/16 A2993 RMK A01 T02410164  RH  062%=      5-min Rain = 0
KHO1 250212Z 16020KT 24/16 A2993 RMK A01 T02410162  RH  061%=      5-min Rain = 0
KHO1 250213Z 16022KT 24/16 A2993 RMK A01 T02410161  RH  061%=      5-min Rain = 0
KHO1 250214Z 16023KT 24/16 A2993 RMK A01 T02400159  RH  060%=      5-min Rain = 0
KHO1 250215Z 16022G27KT 24/16 A2993 RMK A01 T02400158  RH  060%=      5-min Rain = 0
KHO1 250216Z 16018G23KT 24/16 A2993 RMK A01 T02400158  RH  060%=      5-min Rain = 0
KHO1 250217Z 16018G23KT 24/16 A2993 RMK A01 T02400158  RH  060%=      5-min Rain = 0
KHO1 250218Z 17020G25KT 24/16 A2993 RMK A01 T02400158  RH  060%=      5-min Rain = 0
KHO1 250219Z 16020KT 24/16 A2994 RMK A01 T02390158  RH  060%=      5-min Rain = 0
KHO1 250220Z 17022KT 24/16 A2993 RMK A01 T02390158  RH  060%=      5-min Rain = 0
KHO1 250221Z 17018KT 24/16 A2994 RMK A01 T02390157  RH  060%=      5-min Rain = 0
KHO1 250222Z 16020KT 24/16 A2994 RMK A01 T02390157  RH  060%=      5-min Rain = 0
KHO1 250223Z 16020KT 24/16 A2994 RMK A01 T02390156  RH  060%=      5-min Rain = 0
KHO1 250224Z 16019KT 24/16 A2994 RMK A01 T02380156  RH  060%=      5-min Rain = 0
KHO1 250225Z 17021KT 24/16 A2994 RMK A01 T02380156  RH  060%=      5-min Rain = 0
KHO1 250226Z 16020KT 24/16 A2994 RMK A01 T02380156  RH  060%=      5-min Rain = 0
KHO1 250227Z 16020G25KT 24/16 A2994 RMK A01 T02380156  RH  060%=      5-min Rain = 0
KHO1 250228Z 17019KT 24/16 A2994 RMK A01 T02370155  RH  060%=      5-min Rain = 0
KHO1 250229Z 17018KT 24/16 A2994 RMK A01 T02370155  RH  060%=      5-min Rain = 0
KHO1 250230Z 16018KT 24/16 A2994 RMK A01 T02370155  RH  060%=      5-min Rain = 0
KHO1 250231Z 17023KT 24/16 A2994 RMK A01 T02370156  RH  060%=      5-min Rain = 0
KHO1 250232Z 17018KT 24/16 A2994 RMK A01 T02360156  RH  060%=      5-min Rain = 0
KHO1 250233Z 17020KT 24/16 A2994 RMK A01 T02360156  RH  061%=      5-min Rain = 0
KHO1 250234Z 16019KT 24/16 A2994 RMK A01 T02360156  RH  061%=      5-min Rain = 0
KHO1 250235Z 17017KT 24/16 A2994 RMK A01 T02350156  RH  061%=      5-min Rain = 0
KHO1 250236Z 17020KT 24/16 A2994 RMK A01 T02350157  RH  061%=      5-min Rain = 0
KHO1 250237Z 17017KT 24/16 A2994 RMK A01 T02350157  RH  062%=      5-min Rain = 0
KHO1 250238Z 17018KT 23/16 A2994 RMK A01 T02340157  RH  062%=      5-min Rain = 0
KHO1 250239Z 17015KT 23/16 A2994 RMK A01 T02340157  RH  062%=      5-min Rain = 0
KHO1 250240Z 17015KT 23/16 A2994 RMK A01 T02340157  RH  062%=      5-min Rain = 0
KHO1 250241Z 17015KT 23/16 A2994 RMK A01 T02340157  RH  062%=      5-min Rain = 0
KHO1 250242Z 16015KT 23/16 A2995 RMK A01 T02330157  RH  062%=      5-min Rain = 0
KHO1 250243Z 17015KT 23/16 A2995 RMK A01 T02330157  RH  062%=      5-min Rain = 0
KHO1 250244Z 17014KT 23/16 A2995 RMK A01 T02330157  RH  062%=      5-min Rain = 0
KHO1 250245Z 16016KT 23/16 A2995 RMK A01 T02330157  RH  062%=      5-min Rain = 0
KHO1 250246Z 17015KT 23/16 A2995 RMK A01 T02330157  RH  062%=      5-min Rain = 0
KHO1 250247Z 17014KT 23/16 A2995 RMK A01 T02330157  RH  062%=      5-min Rain = 0
KHO1 250248Z 17011KT 23/16 A2995 RMK A01 T02330157  RH  062%=      5-min Rain = 0
KHO1 250249Z 17012KT 23/16 A2995 RMK A01 T02320157  RH  063%=      5-min Rain = 0
KHO1 250250Z 17017KT 23/16 A2995 RMK A01 T02320158  RH  063%=      5-min Rain = 0
KHO1 250251Z 17016KT 23/16 A2995 RMK A01 T02320158  RH  063%=      5-min Rain = 0
KHO1 250252Z 17014KT 23/16 A2995 RMK A01 T02320158  RH  063%=      5-min Rain = 0
KHO1 250253Z 17012KT 23/16 A2995 RMK A01 T02320158  RH  063%=      5-min Rain = 0
KHO1 250254Z 17013KT 23/16 A2995 RMK A01 T02310158  RH  063%=      5-min Rain = 0
KHO1 250255Z 17012KT 23/16 A2995 RMK A01 T02310158  RH  064%=      5-min Rain = 0
KHO1 250256Z 17014G19KT 23/16 A2995 RMK A01 T02310158  RH  064%=      5-min Rain = 0
KHO1 250257Z 17014KT 23/16 A2995 RMK A01 T02310159  RH  064%=      5-min Rain = 0
KHO1 250258Z 17015KT 23/16 A2996 RMK A01 T02310159  RH  064%=      5-min Rain = 0
KHO1 250259Z 17012KT 23/16 A2996 RMK A01 T02310159  RH  064%=      5-min Rain = 0
KHO1 250300Z 17016KT 23/16 A2996 RMK A01 T02300159  RH  064%=      5-min Rain = 0
KHO1 250301Z 17015G20KT 23/16 A2996 RMK A01 T02300159  RH  064%=      5-min Rain = 0
KHO1 250302Z 17016G22KT 23/16 A2996 RMK A01 T02300159  RH  064%=      5-min Rain = 0
KHO1 250303Z 16018KT 23/16 A2996 RMK A01 T02300158  RH  064%=      5-min Rain = 0
KHO1 250304Z 16020G26KT 23/16 A2996 RMK A01 T02310158  RH  064%=      5-min Rain = 0
KHO1 250305Z 17015KT 23/16 A2996 RMK A01 T02300158  RH  064%=      5-min Rain = 0
KHO1 250306Z 17018G24KT 23/16 A2996 RMK A01 T02300157  RH  063%=      5-min Rain = 0
KHO1 250307Z 17014KT 23/16 A2996 RMK A01 T02300157  RH  063%=      5-min Rain = 0
KHO1 250308Z 17018KT 23/16 A2996 RMK A01 T02300157  RH  063%=      5-min Rain = 0
KHO1 250309Z 16020KT 23/16 A2996 RMK A01 T02300157  RH  063%=      5-min Rain = 0
KHO1 250310Z 17016KT 23/16 A2996 RMK A01 T02300157  RH  063%=      5-min Rain = 0
KHO1 250311Z 17018KT 23/16 A2996 RMK A01 T02300155  RH  063%=      5-min Rain = 0
KHO1 250312Z 17016KT 23/16 A2996 RMK A01 T02300155  RH  063%=      5-min Rain = 0
KHO1 250313Z 17015KT 23/16 A2996 RMK A01 T02290155  RH  063%=      5-min Rain = 0
KHO1 250314Z 17018KT 23/16 A2996 RMK A01 T02290155  RH  063%=      5-min Rain = 0
KHO1 250315Z 17016KT 23/16 A2996 RMK A01 T02290155  RH  063%=      5-min Rain = 0
KHO1 250316Z 17014KT 23/15 A2996 RMK A01 T02290154  RH  063%=      5-min Rain = 0
KHO1 250317Z 17016KT 23/15 A2996 RMK A01 T02290154  RH  063%=      5-min Rain = 0
KHO1 250318Z 17017KT 23/15 A2996 RMK A01 T02290154  RH  063%=      5-min Rain = 0
KHO1 250319Z 17016KT 23/15 A2997 RMK A01 T02280154  RH  063%=      5-min Rain = 0
KHO1 250320Z 16013KT 23/15 A2997 RMK A01 T02280154  RH  063%=      5-min Rain = 0
KHO1 250321Z 17013KT 23/15 A2997 RMK A01 T02280154  RH  063%=      5-min Rain = 0
KHO1 250322Z 17013KT 23/15 A2997 RMK A01 T02270154  RH  063%=      5-min Rain = 0
KHO1 250323Z 17014KT 23/15 A2997 RMK A01 T02270153  RH  063%=      5-min Rain = 0
KHO1 250324Z 17014KT 23/15 A2997 RMK A01 T02260154  RH  063%=      5-min Rain = 0
KHO1 250325Z 16014G20KT 23/15 A2997 RMK A01 T02260154  RH  064%=      5-min Rain = 0
KHO1 250326Z 17013KT 23/15 A2997 RMK A01 T02260154  RH  064%=      5-min Rain = 0
KHO1 250327Z 17014KT 23/15 A2997 RMK A01 T02260154  RH  064%=      5-min Rain = 0
KHO1 250328Z 17014KT 23/15 A2997 RMK A01 T02250154  RH  064%=      5-min Rain = 0
KHO1 250329Z 17014KT 23/15 A2997 RMK A01 T02250154  RH  064%=      5-min Rain = 0
KHO1 250330Z 17010KT 23/15 A2997 RMK A01 T02250154  RH  064%=      5-min Rain = 0
KHO1 250331Z 16009KT 22/15 A2997 RMK A01 T02240153  RH  064%=      5-min Rain = 0
KHO1 250332Z 17010KT 22/15 A2997 RMK A01 T02240153  RH  064%=      5-min Rain = 0
KHO1 250333Z 16014KT 22/15 A2997 RMK A01 T02230153  RH  064%=      5-min Rain = 0
KHO1 250334Z 17013KT 22/15 A2997 RMK A01 T02230153  RH  064%=      5-min Rain = 0
KHO1 250335Z 17015KT 22/15 A2997 RMK A01 T02240154  RH  065%=      5-min Rain = 0
KHO1 250336Z 17014KT 22/15 A2998 RMK A01 T02240154  RH  065%=      5-min Rain = 0
KHO1 250337Z 17014KT 22/15 A2998 RMK A01 T02230154  RH  065%=      5-min Rain = 0
KHO1 250338Z 16012G17KT 22/15 A2998 RMK A01 T02230154  RH  065%=      5-min Rain = 0
KHO1 250339Z 17014KT 22/15 A2998 RMK A01 T02230154  RH  065%=      5-min Rain = 0
KHO1 250340Z 16016KT 22/15 A2998 RMK A01 T02230154  RH  065%=      5-min Rain = 0
KHO1 250341Z 17015KT 22/16 A2998 RMK A01 T02230155  RH  065%=      5-min Rain = 0
KHO1 250342Z 17011KT 22/16 A2998 RMK A01 T02230155  RH  065%=      5-min Rain = 0
KHO1 250343Z 17014KT 22/16 A2998 RMK A01 T02220155  RH  066%=      5-min Rain = 0
KHO1 250344Z 16015KT 22/16 A2998 RMK A01 T02220156  RH  066%=      5-min Rain = 0
KHO1 250345Z 17012KT 22/16 A2998 RMK A01 T02220156  RH  066%=      5-min Rain = 0
KHO1 250346Z 17014KT 22/16 A2998 RMK A01 T02220156  RH  066%=      5-min Rain = 0
KHO1 250347Z 17014KT 22/16 A2998 RMK A01 T02220156  RH  066%=      5-min Rain = 0
KHO1 250348Z 17011KT 22/16 A2998 RMK A01 T02220156  RH  066%=      5-min Rain = 0
KHO1 250349Z 17012KT 22/16 A2998 RMK A01 T02210156  RH  067%=      5-min Rain = 0
KHO1 250350Z 17013KT 22/16 A2998 RMK A01 T02210157  RH  067%=      5-min Rain = 0
KHO1 250351Z 17014G19KT 22/16 A2998 RMK A01 T02210157  RH  067%=      5-min Rain = 0
KHO1 250352Z 16014KT 22/16 A2999 RMK A01 T02210158  RH  067%=      5-min Rain = 0
KHO1 250353Z 17016KT 22/16 A2999 RMK A01 T02210158  RH  068%=      5-min Rain = 0
KHO1 250354Z 17017KT 22/16 A2999 RMK A01 T02210159  RH  068%=      5-min Rain = 0
KHO1 250355Z 17017KT 22/16 A2999 RMK A01 T02210159  RH  068%=      5-min Rain = 0
KHO1 250356Z 17016KT 22/16 A2999 RMK A01 T02210159  RH  068%=      5-min Rain = 0
KHO1 250357Z 17015KT 22/16 A2999 RMK A01 T02200159  RH  068%=      5-min Rain = 0
KHO1 250358Z 17019KT 22/16 A2999 RMK A01 T02200160  RH  069%=      5-min Rain = 0
KHO1 250359Z 17018G23KT 22/16 A2999 RMK A01 T02200160  RH  069%=      5-min Rain = 0
KHO1 250400Z 17014KT 22/16 A2999 RMK A01 T02200160  RH  069%=      5-min Rain = 0
KHO1 250401Z 17015KT 22/16 A2999 RMK A01 T02200160  RH  069%=      5-min Rain = 0
KHO1 250402Z 17015KT 22/16 A2999 RMK A01 T02190161  RH  069%=      5-min Rain = 0
KHO1 250403Z 18014KT 22/16 A2999 RMK A01 T02190161  RH  069%=      5-min Rain = 0
KHO1 250404Z 17015KT 22/16 A2999 RMK A01 T02190161  RH  070%=      5-min Rain = 0
KHO1 250405Z 17014G19KT 22/16 A2999 RMK A01 T02190161  RH  070%=      5-min Rain = 0
KHO1 250406Z 17013G19KT 22/16 A2999 RMK A01 T02180161  RH  070%=      5-min Rain = 0
KHO1 250407Z 17013G18KT 22/16 A2999 RMK A01 T02180161  RH  070%=      5-min Rain = 0
KHO1 250408Z 17016KT 22/16 A2999 RMK A01 T02180162  RH  070%=      5-min Rain = 0
KHO1 250409Z 17017KT 22/16 A2999 RMK A01 T02180162  RH  070%=      5-min Rain = 0
KHO1 250410Z 17016KT 22/16 A2999 RMK A01 T02180162  RH  070%=      5-min Rain = 0
KHO1 250411Z 17014KT 22/16 A2999 RMK A01 T02180162  RH  070%=      5-min Rain = 0
KHO1 250412Z 17015KT 22/16 A2999 RMK A01 T02180162  RH  071%=      5-min Rain = 0
KHO1 250413Z 17015KT 22/16 A2999 RMK A01 T02180162  RH  071%=      5-min Rain = 0
KHO1 250414Z 17016KT 22/16 A2999 RMK A01 T02180162  RH  071%=      5-min Rain = 0
KHO1 250415Z 17015KT 22/16 A2999 RMK A01 T02170162  RH  071%=      5-min Rain = 0
KHO1 250416Z 17015KT 22/16 A2999 RMK A01 T02170162  RH  071%=      5-min Rain = 0
KHO1 250417Z 17015G20KT 22/16 A2999 RMK A01 T02170162  RH  071%=      5-min Rain = 0
KHO1 250418Z 17018KT 22/16 A2999 RMK A01 T02170163  RH  071%=      5-min Rain = 0
KHO1 250419Z 17015KT 22/16 A2999 RMK A01 T02170163  RH  071%=      5-min Rain = 0
KHO1 250420Z 17014KT 22/16 A2999 RMK A01 T02170163  RH  071%=      5-min Rain = 0
KHO1 250421Z 18015KT 22/16 A2999 RMK A01 T02170163  RH  071%=      5-min Rain = 0
KHO1 250422Z 17014KT 22/16 A2999 RMK A01 T02170163  RH  071%=      5-min Rain = 0
KHO1 250423Z 18014KT 22/16 A2999 RMK A01 T02160163  RH  072%=      5-min Rain = 0
KHO1 250424Z 17013KT 22/16 A2999 RMK A01 T02160163  RH  072%=      5-min Rain = 0
KHO1 250425Z 17012KT 22/16 A2999 RMK A01 T02160163  RH  072%=      5-min Rain = 0
KHO1 250426Z 17013KT 22/16 A2999 RMK A01 T02160163  RH  072%=      5-min Rain = 0
KHO1 250427Z 17012G17KT 22/16 A2999 RMK A01 T02160163  RH  072%=      5-min Rain = 0
KHO1 250428Z 17012KT 22/16 A2999 RMK A01 T02160163  RH  072%=      5-min Rain = 0
KHO1 250429Z 17012KT 22/16 A2999 RMK A01 T02150163  RH  072%=      5-min Rain = 0
KHO1 250430Z 17016KT 22/16 A2999 RMK A01 T02150163  RH  072%=      5-min Rain = 0
KHO1 250431Z 17014KT 22/16 A2999 RMK A01 T02160163  RH  072%=      5-min Rain = 0
KHO1 250432Z 16015KT 22/16 A2999 RMK A01 T02160163  RH  072%=      5-min Rain = 0
KHO1 250433Z 17016KT 22/16 A2999 RMK A01 T02160164  RH  072%=      5-min Rain = 0
KHO1 250434Z 17016KT 22/16 A2999 RMK A01 T02160164  RH  072%=      5-min Rain = 0
KHO1 250435Z 17013KT 22/16 A2999 RMK A01 T02160163  RH  072%=      5-min Rain = 0
KHO1 250436Z 16015KT 22/16 A2999 RMK A01 T02150163  RH  072%=      5-min Rain = 0
KHO1 250437Z 16015KT 22/16 A2999 RMK A01 T02150163  RH  072%=      5-min Rain = 0
KHO1 250438Z 16015KT 22/16 A2999 RMK A01 T02150163  RH  072%=      5-min Rain = 0
KHO1 250439Z 17014KT 22/16 A2999 RMK A01 T02150164  RH  073%=      5-min Rain = 0
KHO1 250440Z 17014KT 22/16 A2999 RMK A01 T02150164  RH  073%=      5-min Rain = 0
KHO1 250441Z 17012G17KT 22/16 A2999 RMK A01 T02150164  RH  073%=      5-min Rain = 0
KHO1 250442Z 17014KT 21/16 A2999 RMK A01 T02140164  RH  073%=      5-min Rain = 0
KHO1 250443Z 17015KT 21/16 A2999 RMK A01 T02140164  RH  073%=      5-min Rain = 0
KHO1 250444Z 17014KT 21/16 A2999 RMK A01 T02140164  RH  073%=      5-min Rain = 0
KHO1 250445Z 17013G19KT 21/16 A2999 RMK A01 T02140164  RH  073%=      5-min Rain = 0
KHO1 250446Z 17016KT 22/16 A2999 RMK A01 T02150164  RH  073%=      5-min Rain = 0
KHO1 250447Z 17016KT 22/17 A2999 RMK A01 T02150165  RH  073%=      5-min Rain = 0
KHO1 250448Z 17017KT 22/17 A2999 RMK A01 T02150165  RH  073%=      5-min Rain = 0
KHO1 250449Z 17016KT 22/16 A2999 RMK A01 T02150164  RH  073%=      5-min Rain = 0
KHO1 250450Z 17015KT 22/16 A2999 RMK A01 T02150164  RH  073%=      5-min Rain = 0
KHO1 250451Z 17015KT 22/16 A2999 RMK A01 T02150164  RH  073%=      5-min Rain = 0
KHO1 250452Z 17013KT 22/16 A2999 RMK A01 T02150164  RH  073%=      5-min Rain = 0
KHO1 250453Z 17014KT 21/16 A2999 RMK A01 T02140164  RH  073%=      5-min Rain = 0
KHO1 250454Z 17014KT 22/17 A2999 RMK A01 T02150165  RH  073%=      5-min Rain = 0
KHO1 250455Z 17013G18KT 22/16 A2999 RMK A01 T02150164  RH  073%=      5-min Rain = 0
KHO1 250456Z 17013KT 21/16 A2999 RMK A01 T02140164  RH  073%=      5-min Rain = 0
KHO1 250457Z 17014KT 21/17 A2999 RMK A01 T02140165  RH  073%=      5-min Rain = 0
KHO1 250458Z 17011KT 21/16 A2999 RMK A01 T02140164  RH  073%=      5-min Rain = 0
KHO1 250459Z 17011KT 21/16 A2999 RMK A01 T02140164  RH  073%=      5-min Rain = 0

Page generated in 0.1694 seconds.